<?xml version="1.0" encoding="UTF-8" standalone="no" ?>
<gpx xmlns="http://www.topografix.com/GPX/1/1" xmlns:xsi="http://www.w3.org/2001/XMLSchema-instance" xsi:schemaLocation="http://www.topografix.com/GPX/1/1 http://www.topografix.com/GPX/1/1/gpx.xsd" version="1.1" creator="VisuGPX - https://www.visugpx.com">
  <metadata>
    <name>st benoit2012</name>
    <desc><![CDATA[Saint Benoit Vtt le 14.12.2014]]></desc>
  </metadata>
  <trk>
    <name><![CDATA[st benoit2012]]></name>
    <trkseg>
      <trkpt lat="46.55939" lon="0.34346">
        <ele>122.119377</ele>
        <time>2012-01-15T07:27:07Z</time>
      </trkpt>
      <trkpt lat="46.55939" lon="0.34346">
        <ele>122.124397</ele>
        <time>2012-01-15T07:27:15Z</time>
      </trkpt>
      <trkpt lat="46.55939" lon="0.34346">
        <ele>122.115692</ele>
        <time>2012-01-15T07:27:25Z</time>
      </trkpt>
      <trkpt lat="46.55939" lon="0.34346">
        <ele>122.115692</ele>
        <time>2012-01-15T07:27:41Z</time>
      </trkpt>
      <trkpt lat="46.55939" lon="0.34346">
        <ele>122.123848</ele>
        <time>2012-01-15T07:28:10Z</time>
      </trkpt>
      <trkpt lat="46.5592" lon="0.34363">
        <ele>122.637344</ele>
        <time>2012-01-15T07:29:38Z</time>
      </trkpt>
      <trkpt lat="46.55892" lon="0.34365">
        <ele>123.015373</ele>
        <time>2012-01-15T07:29:49Z</time>
      </trkpt>
      <trkpt lat="46.55891" lon="0.34366">
        <ele>123.031601</ele>
        <time>2012-01-15T07:29:50Z</time>
      </trkpt>
      <trkpt lat="46.55886" lon="0.34386">
        <ele>123.135887</ele>
        <time>2012-01-15T07:29:55Z</time>
      </trkpt>
      <trkpt lat="46.5588" lon="0.34398">
        <ele>123.292496</ele>
        <time>2012-01-15T07:30:00Z</time>
      </trkpt>
      <trkpt lat="46.5588" lon="0.34405">
        <ele>123.332352</ele>
        <time>2012-01-15T07:30:02Z</time>
      </trkpt>
      <trkpt lat="46.5586" lon="0.34407">
        <ele>123.777252</ele>
        <time>2012-01-15T07:30:11Z</time>
      </trkpt>
      <trkpt lat="46.55829" lon="0.34404">
        <ele>123.96389</ele>
        <time>2012-01-15T07:30:22Z</time>
      </trkpt>
      <trkpt lat="46.55817" lon="0.34402">
        <ele>123.973503</ele>
        <time>2012-01-15T07:30:26Z</time>
      </trkpt>
      <trkpt lat="46.55813" lon="0.34385">
        <ele>123.930779</ele>
        <time>2012-01-15T07:30:30Z</time>
      </trkpt>
      <trkpt lat="46.5582" lon="0.3434">
        <ele>123.606804</ele>
        <time>2012-01-15T07:30:44Z</time>
      </trkpt>
      <trkpt lat="46.55821" lon="0.34333">
        <ele>123.522346</ele>
        <time>2012-01-15T07:41:44Z</time>
      </trkpt>
      <trkpt lat="46.55821" lon="0.34333">
        <ele>123.520798</ele>
        <time>2012-01-15T07:42:37Z</time>
      </trkpt>
      <trkpt lat="46.55822" lon="0.34327">
        <ele>123.436447</ele>
        <time>2012-01-15T07:43:46Z</time>
      </trkpt>
      <trkpt lat="46.55814" lon="0.34319">
        <ele>123.482216</ele>
        <time>2012-01-15T07:43:56Z</time>
      </trkpt>
      <trkpt lat="46.55786" lon="0.34318">
        <ele>123.594376</ele>
        <time>2012-01-15T07:44:07Z</time>
      </trkpt>
      <trkpt lat="46.5576" lon="0.34315">
        <ele>123.533752</ele>
        <time>2012-01-15T07:44:22Z</time>
      </trkpt>
      <trkpt lat="46.55738" lon="0.34309">
        <ele>123.240097</ele>
        <time>2012-01-15T07:44:33Z</time>
      </trkpt>
      <trkpt lat="46.55721" lon="0.34289">
        <ele>123.021729</ele>
        <time>2012-01-15T07:44:44Z</time>
      </trkpt>
      <trkpt lat="46.55716" lon="0.34283">
        <ele>123.001701</ele>
        <time>2012-01-15T07:44:47Z</time>
      </trkpt>
      <trkpt lat="46.55713" lon="0.34281">
        <ele>122.982872</ele>
        <time>2012-01-15T07:44:50Z</time>
      </trkpt>
      <trkpt lat="46.55706" lon="0.34275">
        <ele>122.913391</ele>
        <time>2012-01-15T07:44:58Z</time>
      </trkpt>
      <trkpt lat="46.55709" lon="0.34245">
        <ele>122.471596</ele>
        <time>2012-01-15T07:45:05Z</time>
      </trkpt>
      <trkpt lat="46.55682" lon="0.34224">
        <ele>122.700935</ele>
        <time>2012-01-15T07:45:14Z</time>
      </trkpt>
      <trkpt lat="46.55677" lon="0.342">
        <ele>122.425972</ele>
        <time>2012-01-15T07:45:19Z</time>
      </trkpt>
      <trkpt lat="46.5568" lon="0.34189">
        <ele>122.134499</ele>
        <time>2012-01-15T07:45:21Z</time>
      </trkpt>
      <trkpt lat="46.55689" lon="0.34164">
        <ele>121.248383</ele>
        <time>2012-01-15T07:45:26Z</time>
      </trkpt>
      <trkpt lat="46.55701" lon="0.3412">
        <ele>118.919373</ele>
        <time>2012-01-15T07:45:33Z</time>
      </trkpt>
      <trkpt lat="46.55705" lon="0.341">
        <ele>117.814377</ele>
        <time>2012-01-15T07:45:36Z</time>
      </trkpt>
      <trkpt lat="46.55711" lon="0.34094">
        <ele>117.263817</ele>
        <time>2012-01-15T07:45:38Z</time>
      </trkpt>
      <trkpt lat="46.55729" lon="0.34092">
        <ele>116.083939</ele>
        <time>2012-01-15T07:45:42Z</time>
      </trkpt>
      <trkpt lat="46.55787" lon="0.34079">
        <ele>114.759956</ele>
        <time>2012-01-15T07:45:57Z</time>
      </trkpt>
      <trkpt lat="46.55834" lon="0.34047">
        <ele>112.263824</ele>
        <time>2012-01-15T07:46:11Z</time>
      </trkpt>
      <trkpt lat="46.55883" lon="0.34044">
        <ele>113.686195</ele>
        <time>2012-01-15T07:46:23Z</time>
      </trkpt>
      <trkpt lat="46.55915" lon="0.34036">
        <ele>114.759651</ele>
        <time>2012-01-15T07:46:32Z</time>
      </trkpt>
      <trkpt lat="46.55926" lon="0.34014">
        <ele>114.543198</ele>
        <time>2012-01-15T07:46:37Z</time>
      </trkpt>
      <trkpt lat="46.55929" lon="0.34008">
        <ele>113.902939</ele>
        <time>2012-01-15T07:46:38Z</time>
      </trkpt>
      <trkpt lat="46.55934" lon="0.33997">
        <ele>112.779724</ele>
        <time>2012-01-15T07:46:40Z</time>
      </trkpt>
      <trkpt lat="46.55937" lon="0.33993">
        <ele>112.410477</ele>
        <time>2012-01-15T07:46:41Z</time>
      </trkpt>
      <trkpt lat="46.55945" lon="0.33984">
        <ele>112.1688</ele>
        <time>2012-01-15T07:46:43Z</time>
      </trkpt>
      <trkpt lat="46.55949" lon="0.33981">
        <ele>112.277679</ele>
        <time>2012-01-15T07:46:44Z</time>
      </trkpt>
      <trkpt lat="46.5598" lon="0.33946">
        <ele>115.173203</ele>
        <time>2012-01-15T07:46:55Z</time>
      </trkpt>
      <trkpt lat="46.56014" lon="0.33928">
        <ele>115.598801</ele>
        <time>2012-01-15T07:47:05Z</time>
      </trkpt>
      <trkpt lat="46.56037" lon="0.33892">
        <ele>114.919128</ele>
        <time>2012-01-15T07:47:14Z</time>
      </trkpt>
      <trkpt lat="46.5604" lon="0.33887">
        <ele>114.732246</ele>
        <time>2012-01-15T07:47:15Z</time>
      </trkpt>
      <trkpt lat="46.56043" lon="0.33882">
        <ele>114.56118</ele>
        <time>2012-01-15T07:47:16Z</time>
      </trkpt>
      <trkpt lat="46.56084" lon="0.33835">
        <ele>112.4664</ele>
        <time>2012-01-15T07:47:28Z</time>
      </trkpt>
      <trkpt lat="46.56085" lon="0.33831">
        <ele>112.399124</ele>
        <time>2012-01-15T07:47:29Z</time>
      </trkpt>
      <trkpt lat="46.56085" lon="0.33828">
        <ele>112.329987</ele>
        <time>2012-01-15T07:47:30Z</time>
      </trkpt>
      <trkpt lat="46.56085" lon="0.33825">
        <ele>112.242249</ele>
        <time>2012-01-15T07:47:31Z</time>
      </trkpt>
      <trkpt lat="46.56083" lon="0.33823">
        <ele>112.139709</ele>
        <time>2012-01-15T07:47:32Z</time>
      </trkpt>
      <trkpt lat="46.56082" lon="0.33821">
        <ele>112.016014</ele>
        <time>2012-01-15T07:47:33Z</time>
      </trkpt>
      <trkpt lat="46.5608" lon="0.33818">
        <ele>111.882813</ele>
        <time>2012-01-15T07:47:34Z</time>
      </trkpt>
      <trkpt lat="46.56079" lon="0.33815">
        <ele>111.726089</ele>
        <time>2012-01-15T07:47:35Z</time>
      </trkpt>
      <trkpt lat="46.56077" lon="0.33811">
        <ele>111.41066</ele>
        <time>2012-01-15T07:47:36Z</time>
      </trkpt>
      <trkpt lat="46.56076" lon="0.33806">
        <ele>110.098648</ele>
        <time>2012-01-15T07:47:37Z</time>
      </trkpt>
      <trkpt lat="46.56077" lon="0.33802">
        <ele>109.02037</ele>
        <time>2012-01-15T07:47:38Z</time>
      </trkpt>
      <trkpt lat="46.56079" lon="0.33799">
        <ele>108.529739</ele>
        <time>2012-01-15T07:47:39Z</time>
      </trkpt>
      <trkpt lat="46.56091" lon="0.33794">
        <ele>108.832451</ele>
        <time>2012-01-15T07:47:47Z</time>
      </trkpt>
      <trkpt lat="46.56094" lon="0.33791">
        <ele>108.598335</ele>
        <time>2012-01-15T07:47:49Z</time>
      </trkpt>
      <trkpt lat="46.56099" lon="0.33781">
        <ele>107.864349</ele>
        <time>2012-01-15T07:47:53Z</time>
      </trkpt>
      <trkpt lat="46.56111" lon="0.33771">
        <ele>108.814751</ele>
        <time>2012-01-15T07:48:04Z</time>
      </trkpt>
      <trkpt lat="46.5612" lon="0.33762">
        <ele>108.334061</ele>
        <time>2012-01-15T07:48:18Z</time>
      </trkpt>
      <trkpt lat="46.5612" lon="0.33762">
        <ele>108.334061</ele>
        <time>2012-01-15T07:48:49Z</time>
      </trkpt>
      <trkpt lat="46.5612" lon="0.33762">
        <ele>108.330299</ele>
        <time>2012-01-15T07:49:08Z</time>
      </trkpt>
      <trkpt lat="46.5613" lon="0.33755">
        <ele>108.278198</ele>
        <time>2012-01-15T07:49:14Z</time>
      </trkpt>
      <trkpt lat="46.56137" lon="0.33743">
        <ele>107.675461</ele>
        <time>2012-01-15T07:49:21Z</time>
      </trkpt>
      <trkpt lat="46.56141" lon="0.33731">
        <ele>104.61451</ele>
        <time>2012-01-15T07:49:26Z</time>
      </trkpt>
      <trkpt lat="46.56144" lon="0.33728">
        <ele>104.289482</ele>
        <time>2012-01-15T07:49:28Z</time>
      </trkpt>
      <trkpt lat="46.56147" lon="0.33724">
        <ele>103.670105</ele>
        <time>2012-01-15T07:49:39Z</time>
      </trkpt>
      <trkpt lat="46.56147" lon="0.33719">
        <ele>102.233109</ele>
        <time>2012-01-15T07:49:49Z</time>
      </trkpt>
      <trkpt lat="46.56146" lon="0.33716">
        <ele>101.504967</ele>
        <time>2012-01-15T07:50:05Z</time>
      </trkpt>
      <trkpt lat="46.56147" lon="0.33709">
        <ele>99.724007</ele>
        <time>2012-01-15T07:50:21Z</time>
      </trkpt>
      <trkpt lat="46.56146" lon="0.33707">
        <ele>99.240685</ele>
        <time>2012-01-15T07:50:34Z</time>
      </trkpt>
      <trkpt lat="46.56143" lon="0.337">
        <ele>96.770226</ele>
        <time>2012-01-15T07:50:42Z</time>
      </trkpt>
      <trkpt lat="46.56138" lon="0.33693">
        <ele>93.37397</ele>
        <time>2012-01-15T07:50:51Z</time>
      </trkpt>
      <trkpt lat="46.56128" lon="0.33702">
        <ele>93.471649</ele>
        <time>2012-01-15T07:50:56Z</time>
      </trkpt>
      <trkpt lat="46.56119" lon="0.33711">
        <ele>94.470741</ele>
        <time>2012-01-15T07:51:07Z</time>
      </trkpt>
      <trkpt lat="46.56115" lon="0.33712">
        <ele>94.160652</ele>
        <time>2012-01-15T07:51:17Z</time>
      </trkpt>
      <trkpt lat="46.56113" lon="0.33712">
        <ele>93.566414</ele>
        <time>2012-01-15T07:51:19Z</time>
      </trkpt>
      <trkpt lat="46.56102" lon="0.33716">
        <ele>92.889</ele>
        <time>2012-01-15T07:51:28Z</time>
      </trkpt>
      <trkpt lat="46.56102" lon="0.33716">
        <ele>92.889</ele>
        <time>2012-01-15T07:51:30Z</time>
      </trkpt>
      <trkpt lat="46.56097" lon="0.33717">
        <ele>91.585533</ele>
        <time>2012-01-15T07:51:39Z</time>
      </trkpt>
      <trkpt lat="46.56088" lon="0.33718">
        <ele>89.838753</ele>
        <time>2012-01-15T07:51:43Z</time>
      </trkpt>
      <trkpt lat="46.56077" lon="0.3372">
        <ele>87.117126</ele>
        <time>2012-01-15T07:51:52Z</time>
      </trkpt>
      <trkpt lat="46.56065" lon="0.33724">
        <ele>84.879501</ele>
        <time>2012-01-15T07:52:00Z</time>
      </trkpt>
      <trkpt lat="46.56059" lon="0.33727">
        <ele>84.29805</ele>
        <time>2012-01-15T07:52:04Z</time>
      </trkpt>
      <trkpt lat="46.56056" lon="0.33732">
        <ele>84.637596</ele>
        <time>2012-01-15T07:52:07Z</time>
      </trkpt>
      <trkpt lat="46.56041" lon="0.33731">
        <ele>81.031136</ele>
        <time>2012-01-15T07:52:12Z</time>
      </trkpt>
      <trkpt lat="46.56033" lon="0.33733">
        <ele>79.459198</ele>
        <time>2012-01-15T07:52:14Z</time>
      </trkpt>
      <trkpt lat="46.56018" lon="0.33748">
        <ele>76.925278</ele>
        <time>2012-01-15T07:52:19Z</time>
      </trkpt>
      <trkpt lat="46.55982" lon="0.33785">
        <ele>78.81282</ele>
        <time>2012-01-15T07:52:31Z</time>
      </trkpt>
      <trkpt lat="46.55956" lon="0.33816">
        <ele>77.51825</ele>
        <time>2012-01-15T07:52:40Z</time>
      </trkpt>
      <trkpt lat="46.55946" lon="0.33826">
        <ele>78.171402</ele>
        <time>2012-01-15T07:52:43Z</time>
      </trkpt>
      <trkpt lat="46.5591" lon="0.33868">
        <ele>79.455086</ele>
        <time>2012-01-15T07:52:56Z</time>
      </trkpt>
      <trkpt lat="46.55872" lon="0.339">
        <ele>79.855209</ele>
        <time>2012-01-15T07:53:08Z</time>
      </trkpt>
      <trkpt lat="46.55855" lon="0.33909">
        <ele>80.501328</ele>
        <time>2012-01-15T07:53:13Z</time>
      </trkpt>
      <trkpt lat="46.55839" lon="0.33912">
        <ele>79.941338</ele>
        <time>2012-01-15T07:53:18Z</time>
      </trkpt>
      <trkpt lat="46.55828" lon="0.33912">
        <ele>79.585716</ele>
        <time>2012-01-15T07:53:22Z</time>
      </trkpt>
      <trkpt lat="46.5582" lon="0.33909">
        <ele>78.740616</ele>
        <time>2012-01-15T07:53:24Z</time>
      </trkpt>
      <trkpt lat="46.55804" lon="0.33898">
        <ele>76.546204</ele>
        <time>2012-01-15T07:53:28Z</time>
      </trkpt>
      <trkpt lat="46.55786" lon="0.33885">
        <ele>74.476372</ele>
        <time>2012-01-15T07:53:32Z</time>
      </trkpt>
      <trkpt lat="46.55772" lon="0.33875">
        <ele>73.746712</ele>
        <time>2012-01-15T07:53:35Z</time>
      </trkpt>
      <trkpt lat="46.5575" lon="0.33879">
        <ele>73</ele>
        <time>2012-01-15T07:53:40Z</time>
      </trkpt>
      <trkpt lat="46.55722" lon="0.339">
        <ele>74.230003</ele>
        <time>2012-01-15T07:53:47Z</time>
      </trkpt>
      <trkpt lat="46.55709" lon="0.33909">
        <ele>75.294998</ele>
        <time>2012-01-15T07:53:50Z</time>
      </trkpt>
      <trkpt lat="46.5569" lon="0.33917">
        <ele>76.440453</ele>
        <time>2012-01-15T07:53:54Z</time>
      </trkpt>
      <trkpt lat="46.55672" lon="0.33923">
        <ele>77.542221</ele>
        <time>2012-01-15T07:53:58Z</time>
      </trkpt>
      <trkpt lat="46.55644" lon="0.33926">
        <ele>78.068748</ele>
        <time>2012-01-15T07:54:04Z</time>
      </trkpt>
      <trkpt lat="46.55617" lon="0.33924">
        <ele>77.693748</ele>
        <time>2012-01-15T07:54:10Z</time>
      </trkpt>
      <trkpt lat="46.55589" lon="0.33907">
        <ele>74.616997</ele>
        <time>2012-01-15T07:54:19Z</time>
      </trkpt>
      <trkpt lat="46.55577" lon="0.33896">
        <ele>73.077339</ele>
        <time>2012-01-15T07:54:30Z</time>
      </trkpt>
      <trkpt lat="46.55545" lon="0.33864">
        <ele>73</ele>
        <time>2012-01-15T07:54:42Z</time>
      </trkpt>
      <trkpt lat="46.55511" lon="0.33815">
        <ele>73</ele>
        <time>2012-01-15T07:54:55Z</time>
      </trkpt>
      <trkpt lat="46.55489" lon="0.33793">
        <ele>73</ele>
        <time>2012-01-15T07:55:01Z</time>
      </trkpt>
      <trkpt lat="46.55465" lon="0.33779">
        <ele>73</ele>
        <time>2012-01-15T07:55:08Z</time>
      </trkpt>
      <trkpt lat="46.55445" lon="0.33775">
        <ele>73</ele>
        <time>2012-01-15T07:55:13Z</time>
      </trkpt>
      <trkpt lat="46.55415" lon="0.33766">
        <ele>73</ele>
        <time>2012-01-15T07:55:20Z</time>
      </trkpt>
      <trkpt lat="46.55385" lon="0.33761">
        <ele>73</ele>
        <time>2012-01-15T07:55:27Z</time>
      </trkpt>
      <trkpt lat="46.55369" lon="0.33753">
        <ele>73</ele>
        <time>2012-01-15T07:55:31Z</time>
      </trkpt>
      <trkpt lat="46.55362" lon="0.33746">
        <ele>73</ele>
        <time>2012-01-15T07:55:33Z</time>
      </trkpt>
      <trkpt lat="46.55334" lon="0.33735">
        <ele>73</ele>
        <time>2012-01-15T07:55:41Z</time>
      </trkpt>
      <trkpt lat="46.55309" lon="0.33736">
        <ele>73</ele>
        <time>2012-01-15T07:55:46Z</time>
      </trkpt>
      <trkpt lat="46.553" lon="0.33738">
        <ele>73</ele>
        <time>2012-01-15T07:55:48Z</time>
      </trkpt>
      <trkpt lat="46.55279" lon="0.33737">
        <ele>73</ele>
        <time>2012-01-15T07:55:53Z</time>
      </trkpt>
      <trkpt lat="46.55257" lon="0.33739">
        <ele>73</ele>
        <time>2012-01-15T07:55:58Z</time>
      </trkpt>
      <trkpt lat="46.5524" lon="0.3374">
        <ele>73</ele>
        <time>2012-01-15T07:56:02Z</time>
      </trkpt>
      <trkpt lat="46.55227" lon="0.3374">
        <ele>73</ele>
        <time>2012-01-15T07:56:05Z</time>
      </trkpt>
      <trkpt lat="46.5521" lon="0.33741">
        <ele>73</ele>
        <time>2012-01-15T07:56:09Z</time>
      </trkpt>
      <trkpt lat="46.55154" lon="0.3374">
        <ele>73</ele>
        <time>2012-01-15T07:56:22Z</time>
      </trkpt>
      <trkpt lat="46.55132" lon="0.33737">
        <ele>73</ele>
        <time>2012-01-15T07:56:27Z</time>
      </trkpt>
      <trkpt lat="46.55077" lon="0.33726">
        <ele>73</ele>
        <time>2012-01-15T07:56:40Z</time>
      </trkpt>
      <trkpt lat="46.55045" lon="0.3372">
        <ele>73</ele>
        <time>2012-01-15T07:56:51Z</time>
      </trkpt>
      <trkpt lat="46.55032" lon="0.33722">
        <ele>73</ele>
        <time>2012-01-15T07:57:00Z</time>
      </trkpt>
      <trkpt lat="46.55018" lon="0.3372">
        <ele>73</ele>
        <time>2012-01-15T07:57:05Z</time>
      </trkpt>
      <trkpt lat="46.55011" lon="0.33744">
        <ele>73</ele>
        <time>2012-01-15T07:57:13Z</time>
      </trkpt>
      <trkpt lat="46.55007" lon="0.33763">
        <ele>73</ele>
        <time>2012-01-15T07:57:18Z</time>
      </trkpt>
      <trkpt lat="46.54994" lon="0.33769">
        <ele>73</ele>
        <time>2012-01-15T07:57:24Z</time>
      </trkpt>
      <trkpt lat="46.54944" lon="0.33737">
        <ele>73</ele>
        <time>2012-01-15T07:57:39Z</time>
      </trkpt>
      <trkpt lat="46.54906" lon="0.33731">
        <ele>73.917435</ele>
        <time>2012-01-15T07:57:51Z</time>
      </trkpt>
      <trkpt lat="46.54882" lon="0.33747">
        <ele>76.341499</ele>
        <time>2012-01-15T07:57:59Z</time>
      </trkpt>
      <trkpt lat="46.54872" lon="0.33785">
        <ele>82.114685</ele>
        <time>2012-01-15T07:58:08Z</time>
      </trkpt>
      <trkpt lat="46.5486" lon="0.33776">
        <ele>83.743813</ele>
        <time>2012-01-15T07:58:12Z</time>
      </trkpt>
      <trkpt lat="46.54834" lon="0.33749">
        <ele>83.69397</ele>
        <time>2012-01-15T07:58:20Z</time>
      </trkpt>
      <trkpt lat="46.54781" lon="0.3369">
        <ele>84.223373</ele>
        <time>2012-01-15T07:58:37Z</time>
      </trkpt>
      <trkpt lat="46.54734" lon="0.33637">
        <ele>84.563652</ele>
        <time>2012-01-15T07:58:52Z</time>
      </trkpt>
      <trkpt lat="46.54696" lon="0.33605">
        <ele>85.872238</ele>
        <time>2012-01-15T07:59:04Z</time>
      </trkpt>
      <trkpt lat="46.5466" lon="0.33585">
        <ele>88.385597</ele>
        <time>2012-01-15T07:59:16Z</time>
      </trkpt>
      <trkpt lat="46.54646" lon="0.3358">
        <ele>89.408485</ele>
        <time>2012-01-15T07:59:27Z</time>
      </trkpt>
      <trkpt lat="46.54642" lon="0.33579">
        <ele>89.810814</ele>
        <time>2012-01-15T07:59:38Z</time>
      </trkpt>
      <trkpt lat="46.54632" lon="0.33578">
        <ele>90.68586</ele>
        <time>2012-01-15T07:59:51Z</time>
      </trkpt>
      <trkpt lat="46.54625" lon="0.33578">
        <ele>91.518265</ele>
        <time>2012-01-15T07:59:58Z</time>
      </trkpt>
      <trkpt lat="46.54621" lon="0.33583">
        <ele>92.696503</ele>
        <time>2012-01-15T08:00:03Z</time>
      </trkpt>
      <trkpt lat="46.54618" lon="0.33596">
        <ele>94.860756</ele>
        <time>2012-01-15T08:00:12Z</time>
      </trkpt>
      <trkpt lat="46.54616" lon="0.33609">
        <ele>96.716248</ele>
        <time>2012-01-15T08:00:21Z</time>
      </trkpt>
      <trkpt lat="46.54622" lon="0.33619">
        <ele>97.30806</ele>
        <time>2012-01-15T08:00:26Z</time>
      </trkpt>
      <trkpt lat="46.54655" lon="0.33644">
        <ele>96.712906</ele>
        <time>2012-01-15T08:00:41Z</time>
      </trkpt>
      <trkpt lat="46.54691" lon="0.33641">
        <ele>92.182243</ele>
        <time>2012-01-15T08:00:53Z</time>
      </trkpt>
      <trkpt lat="46.54697" lon="0.33637">
        <ele>90.99054</ele>
        <time>2012-01-15T08:00:55Z</time>
      </trkpt>
      <trkpt lat="46.54709" lon="0.3363">
        <ele>88.234398</ele>
        <time>2012-01-15T08:01:00Z</time>
      </trkpt>
      <trkpt lat="46.5475" lon="0.33566">
        <ele>75.641487</ele>
        <time>2012-01-15T08:01:18Z</time>
      </trkpt>
      <trkpt lat="46.54787" lon="0.33498">
        <ele>73.120903</ele>
        <time>2012-01-15T08:01:34Z</time>
      </trkpt>
      <trkpt lat="46.54831" lon="0.33416">
        <ele>73</ele>
        <time>2012-01-15T08:01:53Z</time>
      </trkpt>
      <trkpt lat="46.54871" lon="0.33369">
        <ele>73.612747</ele>
        <time>2012-01-15T08:02:07Z</time>
      </trkpt>
      <trkpt lat="46.54919" lon="0.33342">
        <ele>82.280502</ele>
        <time>2012-01-15T08:02:22Z</time>
      </trkpt>
      <trkpt lat="46.5494" lon="0.33346">
        <ele>86.367996</ele>
        <time>2012-01-15T08:02:31Z</time>
      </trkpt>
      <trkpt lat="46.54944" lon="0.33346">
        <ele>87.306252</ele>
        <time>2012-01-15T08:02:33Z</time>
      </trkpt>
      <trkpt lat="46.54943" lon="0.33335">
        <ele>89.992203</ele>
        <time>2012-01-15T08:02:38Z</time>
      </trkpt>
      <trkpt lat="46.54942" lon="0.33333">
        <ele>89.942101</ele>
        <time>2012-01-15T08:02:40Z</time>
      </trkpt>
      <trkpt lat="46.5494" lon="0.33332">
        <ele>89.873497</ele>
        <time>2012-01-15T08:02:43Z</time>
      </trkpt>
      <trkpt lat="46.54935" lon="0.33324">
        <ele>90.628014</ele>
        <time>2012-01-15T08:02:49Z</time>
      </trkpt>
      <trkpt lat="46.54924" lon="0.33305">
        <ele>94.185936</ele>
        <time>2012-01-15T08:03:00Z</time>
      </trkpt>
      <trkpt lat="46.54922" lon="0.33304">
        <ele>94.084969</ele>
        <time>2012-01-15T08:03:02Z</time>
      </trkpt>
      <trkpt lat="46.5492" lon="0.333">
        <ele>94.92588</ele>
        <time>2012-01-15T08:03:05Z</time>
      </trkpt>
      <trkpt lat="46.54917" lon="0.33297">
        <ele>95.118004</ele>
        <time>2012-01-15T08:03:07Z</time>
      </trkpt>
      <trkpt lat="46.54905" lon="0.33282">
        <ele>97.495232</ele>
        <time>2012-01-15T08:03:16Z</time>
      </trkpt>
      <trkpt lat="46.54901" lon="0.33277">
        <ele>98.373672</ele>
        <time>2012-01-15T08:03:19Z</time>
      </trkpt>
      <trkpt lat="46.54898" lon="0.33274">
        <ele>98.822472</ele>
        <time>2012-01-15T08:03:22Z</time>
      </trkpt>
      <trkpt lat="46.54894" lon="0.33268">
        <ele>100.117004</ele>
        <time>2012-01-15T08:03:26Z</time>
      </trkpt>
      <trkpt lat="46.54887" lon="0.33259">
        <ele>100.966286</ele>
        <time>2012-01-15T08:03:33Z</time>
      </trkpt>
      <trkpt lat="46.54871" lon="0.33243">
        <ele>101.436874</ele>
        <time>2012-01-15T08:03:47Z</time>
      </trkpt>
      <trkpt lat="46.54866" lon="0.33237">
        <ele>101.885147</ele>
        <time>2012-01-15T08:03:52Z</time>
      </trkpt>
      <trkpt lat="46.54862" lon="0.33228">
        <ele>103.488922</ele>
        <time>2012-01-15T08:03:58Z</time>
      </trkpt>
      <trkpt lat="46.54854" lon="0.33211">
        <ele>107.049004</ele>
        <time>2012-01-15T08:04:07Z</time>
      </trkpt>
      <trkpt lat="46.5485" lon="0.33199">
        <ele>109.177185</ele>
        <time>2012-01-15T08:04:12Z</time>
      </trkpt>
      <trkpt lat="46.5484" lon="0.33165">
        <ele>113.461472</ele>
        <time>2012-01-15T08:04:25Z</time>
      </trkpt>
      <trkpt lat="46.54831" lon="0.33137">
        <ele>117.764626</ele>
        <time>2012-01-15T08:04:36Z</time>
      </trkpt>
      <trkpt lat="46.54829" lon="0.33119">
        <ele>119.683372</ele>
        <time>2012-01-15T08:04:43Z</time>
      </trkpt>
      <trkpt lat="46.54824" lon="0.33075">
        <ele>124.734993</ele>
        <time>2012-01-15T08:04:58Z</time>
      </trkpt>
      <trkpt lat="46.54822" lon="0.33063">
        <ele>125.123123</ele>
        <time>2012-01-15T08:05:02Z</time>
      </trkpt>
      <trkpt lat="46.54814" lon="0.33017">
        <ele>126.74218</ele>
        <time>2012-01-15T08:05:17Z</time>
      </trkpt>
      <trkpt lat="46.54812" lon="0.32974">
        <ele>127</ele>
        <time>2012-01-15T08:05:30Z</time>
      </trkpt>
      <trkpt lat="46.54815" lon="0.32914">
        <ele>127.281723</ele>
        <time>2012-01-15T08:05:43Z</time>
      </trkpt>
      <trkpt lat="46.54806" lon="0.32869">
        <ele>127.329086</ele>
        <time>2012-01-15T08:05:53Z</time>
      </trkpt>
      <trkpt lat="46.54804" lon="0.32861">
        <ele>127.254028</ele>
        <time>2012-01-15T08:05:56Z</time>
      </trkpt>
      <trkpt lat="46.54801" lon="0.32861">
        <ele>127.208878</ele>
        <time>2012-01-15T08:06:00Z</time>
      </trkpt>
      <trkpt lat="46.54802" lon="0.32866">
        <ele>127.249199</ele>
        <time>2012-01-15T08:06:04Z</time>
      </trkpt>
      <trkpt lat="46.54798" lon="0.32869">
        <ele>127.175629</ele>
        <time>2012-01-15T08:06:12Z</time>
      </trkpt>
      <trkpt lat="46.54796" lon="0.32877">
        <ele>127.160439</ele>
        <time>2012-01-15T08:06:15Z</time>
      </trkpt>
      <trkpt lat="46.54776" lon="0.32918">
        <ele>127</ele>
        <time>2012-01-15T08:06:26Z</time>
      </trkpt>
      <trkpt lat="46.54741" lon="0.32949">
        <ele>126.898727</ele>
        <time>2012-01-15T08:06:37Z</time>
      </trkpt>
      <trkpt lat="46.54734" lon="0.32958">
        <ele>126.584732</ele>
        <time>2012-01-15T08:06:39Z</time>
      </trkpt>
      <trkpt lat="46.54704" lon="0.32955">
        <ele>125.933266</ele>
        <time>2012-01-15T08:06:47Z</time>
      </trkpt>
      <trkpt lat="46.54684" lon="0.32931">
        <ele>125.76152</ele>
        <time>2012-01-15T08:06:54Z</time>
      </trkpt>
      <trkpt lat="46.54686" lon="0.32901">
        <ele>125.929466</ele>
        <time>2012-01-15T08:07:02Z</time>
      </trkpt>
      <trkpt lat="46.54662" lon="0.32887">
        <ele>125.977867</ele>
        <time>2012-01-15T08:07:09Z</time>
      </trkpt>
      <trkpt lat="46.54644" lon="0.32863">
        <ele>125.385124</ele>
        <time>2012-01-15T08:07:19Z</time>
      </trkpt>
      <trkpt lat="46.54625" lon="0.3284">
        <ele>124.937027</ele>
        <time>2012-01-15T08:07:27Z</time>
      </trkpt>
      <trkpt lat="46.54621" lon="0.32835">
        <ele>124.918343</ele>
        <time>2012-01-15T08:07:28Z</time>
      </trkpt>
      <trkpt lat="46.54615" lon="0.32825">
        <ele>124.971542</ele>
        <time>2012-01-15T08:07:30Z</time>
      </trkpt>
      <trkpt lat="46.54605" lon="0.32812">
        <ele>124.485893</ele>
        <time>2012-01-15T08:07:33Z</time>
      </trkpt>
      <trkpt lat="46.5459" lon="0.3279">
        <ele>123.310097</ele>
        <time>2012-01-15T08:07:38Z</time>
      </trkpt>
      <trkpt lat="46.54566" lon="0.32759">
        <ele>122.025177</ele>
        <time>2012-01-15T08:07:47Z</time>
      </trkpt>
      <trkpt lat="46.54549" lon="0.32737">
        <ele>120.551826</ele>
        <time>2012-01-15T08:07:54Z</time>
      </trkpt>
      <trkpt lat="46.54545" lon="0.32731">
        <ele>120.134468</ele>
        <time>2012-01-15T08:07:56Z</time>
      </trkpt>
      <trkpt lat="46.54535" lon="0.3271">
        <ele>119.010353</ele>
        <time>2012-01-15T08:08:02Z</time>
      </trkpt>
      <trkpt lat="46.54538" lon="0.32691">
        <ele>118.529129</ele>
        <time>2012-01-15T08:08:10Z</time>
      </trkpt>
      <trkpt lat="46.54537" lon="0.3269">
        <ele>118.534691</ele>
        <time>2012-01-15T08:08:29Z</time>
      </trkpt>
      <trkpt lat="46.54537" lon="0.3269">
        <ele>118.534691</ele>
        <time>2012-01-15T08:08:53Z</time>
      </trkpt>
      <trkpt lat="46.54536" lon="0.32688">
        <ele>118.523659</ele>
        <time>2012-01-15T08:09:17Z</time>
      </trkpt>
      <trkpt lat="46.54536" lon="0.32688">
        <ele>118.535576</ele>
        <time>2012-01-15T08:09:46Z</time>
      </trkpt>
      <trkpt lat="46.54536" lon="0.32688">
        <ele>118.535576</ele>
        <time>2012-01-15T08:10:12Z</time>
      </trkpt>
      <trkpt lat="46.54536" lon="0.32687">
        <ele>118.537201</ele>
        <time>2012-01-15T08:10:34Z</time>
      </trkpt>
      <trkpt lat="46.54535" lon="0.32686">
        <ele>118.526871</ele>
        <time>2012-01-15T08:10:59Z</time>
      </trkpt>
      <trkpt lat="46.54535" lon="0.32686">
        <ele>118.526871</ele>
        <time>2012-01-15T08:11:17Z</time>
      </trkpt>
      <trkpt lat="46.54534" lon="0.32685">
        <ele>118.522247</ele>
        <time>2012-01-15T08:11:43Z</time>
      </trkpt>
      <trkpt lat="46.54534" lon="0.32685">
        <ele>118.522247</ele>
        <time>2012-01-15T08:12:08Z</time>
      </trkpt>
      <trkpt lat="46.54534" lon="0.32685">
        <ele>118.521164</ele>
        <time>2012-01-15T08:12:30Z</time>
      </trkpt>
      <trkpt lat="46.54534" lon="0.32685">
        <ele>118.521164</ele>
        <time>2012-01-15T08:12:33Z</time>
      </trkpt>
      <trkpt lat="46.54506" lon="0.32681">
        <ele>117.675659</ele>
        <time>2012-01-15T08:12:46Z</time>
      </trkpt>
      <trkpt lat="46.54491" lon="0.3268">
        <ele>116.799576</ele>
        <time>2012-01-15T08:12:51Z</time>
      </trkpt>
      <trkpt lat="46.54482" lon="0.32663">
        <ele>116.726875</ele>
        <time>2012-01-15T08:12:58Z</time>
      </trkpt>
      <trkpt lat="46.54461" lon="0.3261">
        <ele>118.250671</ele>
        <time>2012-01-15T08:13:11Z</time>
      </trkpt>
      <trkpt lat="46.54455" lon="0.32599">
        <ele>118.83374</ele>
        <time>2012-01-15T08:13:14Z</time>
      </trkpt>
      <trkpt lat="46.54449" lon="0.32581">
        <ele>120.028572</ele>
        <time>2012-01-15T08:13:20Z</time>
      </trkpt>
      <trkpt lat="46.54441" lon="0.32569">
        <ele>120.687607</ele>
        <time>2012-01-15T08:13:24Z</time>
      </trkpt>
      <trkpt lat="46.5443" lon="0.32539">
        <ele>122.419525</ele>
        <time>2012-01-15T08:13:33Z</time>
      </trkpt>
      <trkpt lat="46.54415" lon="0.32518">
        <ele>123.756248</ele>
        <time>2012-01-15T08:13:41Z</time>
      </trkpt>
      <trkpt lat="46.54405" lon="0.32501">
        <ele>124.735512</ele>
        <time>2012-01-15T08:13:48Z</time>
      </trkpt>
      <trkpt lat="46.54403" lon="0.32496">
        <ele>124.8582</ele>
        <time>2012-01-15T08:13:50Z</time>
      </trkpt>
      <trkpt lat="46.54422" lon="0.32489">
        <ele>125.440002</ele>
        <time>2012-01-15T08:14:01Z</time>
      </trkpt>
      <trkpt lat="46.54457" lon="0.32491">
        <ele>125.32</ele>
        <time>2012-01-15T08:14:13Z</time>
      </trkpt>
      <trkpt lat="46.54486" lon="0.3248">
        <ele>125.502129</ele>
        <time>2012-01-15T08:14:22Z</time>
      </trkpt>
      <trkpt lat="46.54526" lon="0.32458">
        <ele>125.28125</ele>
        <time>2012-01-15T08:14:33Z</time>
      </trkpt>
      <trkpt lat="46.54563" lon="0.3244">
        <ele>124.551872</ele>
        <time>2012-01-15T08:14:43Z</time>
      </trkpt>
      <trkpt lat="46.54599" lon="0.32397">
        <ele>122.482651</ele>
        <time>2012-01-15T08:14:56Z</time>
      </trkpt>
      <trkpt lat="46.54641" lon="0.32363">
        <ele>121.137177</ele>
        <time>2012-01-15T08:15:09Z</time>
      </trkpt>
      <trkpt lat="46.54699" lon="0.32297">
        <ele>122.006226</ele>
        <time>2012-01-15T08:15:26Z</time>
      </trkpt>
      <trkpt lat="46.54773" lon="0.3223">
        <ele>123.924393</ele>
        <time>2012-01-15T08:15:45Z</time>
      </trkpt>
      <trkpt lat="46.54857" lon="0.3219">
        <ele>126.238747</ele>
        <time>2012-01-15T08:16:05Z</time>
      </trkpt>
      <trkpt lat="46.54909" lon="0.3216">
        <ele>126.975296</ele>
        <time>2012-01-15T08:16:18Z</time>
      </trkpt>
      <trkpt lat="46.54909" lon="0.32126">
        <ele>126.980003</ele>
        <time>2012-01-15T08:16:24Z</time>
      </trkpt>
      <trkpt lat="46.54887" lon="0.32079">
        <ele>126.5</ele>
        <time>2012-01-15T08:16:32Z</time>
      </trkpt>
      <trkpt lat="46.54866" lon="0.32067">
        <ele>126.044998</ele>
        <time>2012-01-15T08:16:38Z</time>
      </trkpt>
      <trkpt lat="46.54838" lon="0.32087">
        <ele>125.502754</ele>
        <time>2012-01-15T08:16:46Z</time>
      </trkpt>
      <trkpt lat="46.54818" lon="0.32084">
        <ele>125.194389</ele>
        <time>2012-01-15T08:16:50Z</time>
      </trkpt>
      <trkpt lat="46.54801" lon="0.32074">
        <ele>125.214569</ele>
        <time>2012-01-15T08:16:55Z</time>
      </trkpt>
      <trkpt lat="46.54797" lon="0.32058">
        <ele>125.318016</ele>
        <time>2012-01-15T08:16:58Z</time>
      </trkpt>
      <trkpt lat="46.548" lon="0.32042">
        <ele>125.499443</ele>
        <time>2012-01-15T08:17:01Z</time>
      </trkpt>
      <trkpt lat="46.548" lon="0.32027">
        <ele>125.634247</ele>
        <time>2012-01-15T08:17:05Z</time>
      </trkpt>
      <trkpt lat="46.54805" lon="0.32001">
        <ele>125.855453</ele>
        <time>2012-01-15T08:17:13Z</time>
      </trkpt>
      <trkpt lat="46.54806" lon="0.31988">
        <ele>125.92141</ele>
        <time>2012-01-15T08:17:16Z</time>
      </trkpt>
      <trkpt lat="46.54798" lon="0.31977">
        <ele>125.936577</ele>
        <time>2012-01-15T08:17:20Z</time>
      </trkpt>
      <trkpt lat="46.54773" lon="0.31974">
        <ele>125.919975</ele>
        <time>2012-01-15T08:17:26Z</time>
      </trkpt>
      <trkpt lat="46.54756" lon="0.31977">
        <ele>125.9216</ele>
        <time>2012-01-15T08:17:32Z</time>
      </trkpt>
      <trkpt lat="46.54727" lon="0.31984">
        <ele>126.029999</ele>
        <time>2012-01-15T08:17:43Z</time>
      </trkpt>
      <trkpt lat="46.54708" lon="0.31989">
        <ele>126.870003</ele>
        <time>2012-01-15T08:17:50Z</time>
      </trkpt>
      <trkpt lat="46.54697" lon="0.31983">
        <ele>127.339996</ele>
        <time>2012-01-15T08:17:56Z</time>
      </trkpt>
      <trkpt lat="46.54686" lon="0.31943">
        <ele>128.197128</ele>
        <time>2012-01-15T08:18:09Z</time>
      </trkpt>
      <trkpt lat="46.54679" lon="0.31904">
        <ele>129.070007</ele>
        <time>2012-01-15T08:18:21Z</time>
      </trkpt>
      <trkpt lat="46.54669" lon="0.31901">
        <ele>129.520004</ele>
        <time>2012-01-15T08:18:26Z</time>
      </trkpt>
      <trkpt lat="46.54663" lon="0.31903">
        <ele>129.809998</ele>
        <time>2012-01-15T08:18:29Z</time>
      </trkpt>
      <trkpt lat="46.54636" lon="0.31907">
        <ele>131.009995</ele>
        <time>2012-01-15T08:18:42Z</time>
      </trkpt>
      <trkpt lat="46.54604" lon="0.31917">
        <ele>131.725006</ele>
        <time>2012-01-15T08:18:54Z</time>
      </trkpt>
      <trkpt lat="46.54591" lon="0.31916">
        <ele>131.999573</ele>
        <time>2012-01-15T08:18:58Z</time>
      </trkpt>
      <trkpt lat="46.54578" lon="0.31881">
        <ele>132</ele>
        <time>2012-01-15T08:19:09Z</time>
      </trkpt>
      <trkpt lat="46.54563" lon="0.31822">
        <ele>132</ele>
        <time>2012-01-15T08:19:22Z</time>
      </trkpt>
      <trkpt lat="46.54547" lon="0.31755">
        <ele>132</ele>
        <time>2012-01-15T08:19:37Z</time>
      </trkpt>
      <trkpt lat="46.54537" lon="0.31743">
        <ele>131.822815</ele>
        <time>2012-01-15T08:19:41Z</time>
      </trkpt>
      <trkpt lat="46.54524" lon="0.31745">
        <ele>131.406555</ele>
        <time>2012-01-15T08:19:45Z</time>
      </trkpt>
      <trkpt lat="46.54481" lon="0.31769">
        <ele>129.377563</ele>
        <time>2012-01-15T08:20:00Z</time>
      </trkpt>
      <trkpt lat="46.54472" lon="0.31782">
        <ele>128.814499</ele>
        <time>2012-01-15T08:20:04Z</time>
      </trkpt>
      <trkpt lat="46.54464" lon="0.31787">
        <ele>128.438461</ele>
        <time>2012-01-15T08:20:06Z</time>
      </trkpt>
      <trkpt lat="46.54448" lon="0.31799">
        <ele>128.25</ele>
        <time>2012-01-15T08:20:09Z</time>
      </trkpt>
      <trkpt lat="46.54443" lon="0.31803">
        <ele>128.5</ele>
        <time>2012-01-15T08:20:10Z</time>
      </trkpt>
      <trkpt lat="46.54417" lon="0.31828">
        <ele>129.669998</ele>
        <time>2012-01-15T08:20:17Z</time>
      </trkpt>
      <trkpt lat="46.54415" lon="0.31826">
        <ele>129.770004</ele>
        <time>2012-01-15T08:20:18Z</time>
      </trkpt>
      <trkpt lat="46.54407" lon="0.31804">
        <ele>130.077591</ele>
        <time>2012-01-15T08:20:23Z</time>
      </trkpt>
      <trkpt lat="46.54385" lon="0.31692">
        <ele>131.222931</ele>
        <time>2012-01-15T08:20:42Z</time>
      </trkpt>
      <trkpt lat="46.54367" lon="0.31596">
        <ele>132.935455</ele>
        <time>2012-01-15T08:21:01Z</time>
      </trkpt>
      <trkpt lat="46.5435" lon="0.31505">
        <ele>135.345627</ele>
        <time>2012-01-15T08:21:21Z</time>
      </trkpt>
      <trkpt lat="46.54336" lon="0.31433">
        <ele>136</ele>
        <time>2012-01-15T08:21:37Z</time>
      </trkpt>
      <trkpt lat="46.5432" lon="0.31384">
        <ele>135.788132</ele>
        <time>2012-01-15T08:21:50Z</time>
      </trkpt>
      <trkpt lat="46.54311" lon="0.31382">
        <ele>135.743835</ele>
        <time>2012-01-15T08:21:54Z</time>
      </trkpt>
      <trkpt lat="46.54275" lon="0.31396">
        <ele>135.990753</ele>
        <time>2012-01-15T08:22:06Z</time>
      </trkpt>
      <trkpt lat="46.54213" lon="0.31409">
        <ele>135.977432</ele>
        <time>2012-01-15T08:22:22Z</time>
      </trkpt>
      <trkpt lat="46.54157" lon="0.31399">
        <ele>136</ele>
        <time>2012-01-15T08:22:36Z</time>
      </trkpt>
      <trkpt lat="46.54097" lon="0.31382">
        <ele>135.229996</ele>
        <time>2012-01-15T08:22:51Z</time>
      </trkpt>
      <trkpt lat="46.54042" lon="0.31376">
        <ele>134.517349</ele>
        <time>2012-01-15T08:23:03Z</time>
      </trkpt>
      <trkpt lat="46.54033" lon="0.31374">
        <ele>134.470001</ele>
        <time>2012-01-15T08:23:05Z</time>
      </trkpt>
      <trkpt lat="46.53991" lon="0.31352">
        <ele>134.090622</ele>
        <time>2012-01-15T08:23:14Z</time>
      </trkpt>
      <trkpt lat="46.53982" lon="0.31346">
        <ele>134.007767</ele>
        <time>2012-01-15T08:23:16Z</time>
      </trkpt>
      <trkpt lat="46.5394" lon="0.31319">
        <ele>133.122498</ele>
        <time>2012-01-15T08:23:25Z</time>
      </trkpt>
      <trkpt lat="46.53921" lon="0.31306">
        <ele>132.070007</ele>
        <time>2012-01-15T08:23:29Z</time>
      </trkpt>
      <trkpt lat="46.53843" lon="0.31254">
        <ele>126.296547</ele>
        <time>2012-01-15T08:23:45Z</time>
      </trkpt>
      <trkpt lat="46.53839" lon="0.3125">
        <ele>126.374123</ele>
        <time>2012-01-15T08:23:46Z</time>
      </trkpt>
      <trkpt lat="46.53792" lon="0.31205">
        <ele>129.763123</ele>
        <time>2012-01-15T08:23:59Z</time>
      </trkpt>
      <trkpt lat="46.53763" lon="0.31159">
        <ele>133.054993</ele>
        <time>2012-01-15T08:24:11Z</time>
      </trkpt>
      <trkpt lat="46.53733" lon="0.31099">
        <ele>134.672501</ele>
        <time>2012-01-15T08:24:25Z</time>
      </trkpt>
      <trkpt lat="46.53705" lon="0.31042">
        <ele>136.154373</ele>
        <time>2012-01-15T08:24:38Z</time>
      </trkpt>
      <trkpt lat="46.53673" lon="0.30967">
        <ele>137</ele>
        <time>2012-01-15T08:24:54Z</time>
      </trkpt>
      <trkpt lat="46.53656" lon="0.30895">
        <ele>137.908127</ele>
        <time>2012-01-15T08:25:07Z</time>
      </trkpt>
      <trkpt lat="46.53647" lon="0.30868">
        <ele>137.486252</ele>
        <time>2012-01-15T08:25:12Z</time>
      </trkpt>
      <trkpt lat="46.53609" lon="0.30787">
        <ele>135.436249</ele>
        <time>2012-01-15T08:25:27Z</time>
      </trkpt>
      <trkpt lat="46.53593" lon="0.30773">
        <ele>134.972794</ele>
        <time>2012-01-15T08:25:31Z</time>
      </trkpt>
      <trkpt lat="46.53578" lon="0.30767">
        <ele>134.531693</ele>
        <time>2012-01-15T08:25:35Z</time>
      </trkpt>
      <trkpt lat="46.53569" lon="0.30765">
        <ele>133.873505</ele>
        <time>2012-01-15T08:25:37Z</time>
      </trkpt>
      <trkpt lat="46.53535" lon="0.3076">
        <ele>131.252792</ele>
        <time>2012-01-15T08:25:43Z</time>
      </trkpt>
      <trkpt lat="46.5352" lon="0.30758">
        <ele>128.984482</ele>
        <time>2012-01-15T08:25:46Z</time>
      </trkpt>
      <trkpt lat="46.53494" lon="0.3076">
        <ele>125.900879</ele>
        <time>2012-01-15T08:25:52Z</time>
      </trkpt>
      <trkpt lat="46.53479" lon="0.3076">
        <ele>124.302216</ele>
        <time>2012-01-15T08:25:56Z</time>
      </trkpt>
      <trkpt lat="46.53467" lon="0.3076">
        <ele>123.102478</ele>
        <time>2012-01-15T08:25:59Z</time>
      </trkpt>
      <trkpt lat="46.53464" lon="0.3076">
        <ele>122.734001</ele>
        <time>2012-01-15T08:26:00Z</time>
      </trkpt>
      <trkpt lat="46.53438" lon="0.30769">
        <ele>120.245689</ele>
        <time>2012-01-15T08:26:06Z</time>
      </trkpt>
      <trkpt lat="46.53419" lon="0.30777">
        <ele>118.191971</ele>
        <time>2012-01-15T08:26:10Z</time>
      </trkpt>
      <trkpt lat="46.53365" lon="0.30799">
        <ele>116.119293</ele>
        <time>2012-01-15T08:26:21Z</time>
      </trkpt>
      <trkpt lat="46.53328" lon="0.3083">
        <ele>115.409531</ele>
        <time>2012-01-15T08:26:31Z</time>
      </trkpt>
      <trkpt lat="46.53312" lon="0.30839">
        <ele>113.851875</ele>
        <time>2012-01-15T08:26:35Z</time>
      </trkpt>
      <trkpt lat="46.53298" lon="0.30843">
        <ele>112.915398</ele>
        <time>2012-01-15T08:26:38Z</time>
      </trkpt>
      <trkpt lat="46.53268" lon="0.3086">
        <ele>111.101318</ele>
        <time>2012-01-15T08:26:46Z</time>
      </trkpt>
      <trkpt lat="46.5324" lon="0.30881">
        <ele>113.181953</ele>
        <time>2012-01-15T08:26:54Z</time>
      </trkpt>
      <trkpt lat="46.53232" lon="0.30889">
        <ele>112.992348</ele>
        <time>2012-01-15T08:26:56Z</time>
      </trkpt>
      <trkpt lat="46.53197" lon="0.30924">
        <ele>110.580124</ele>
        <time>2012-01-15T08:27:07Z</time>
      </trkpt>
      <trkpt lat="46.53182" lon="0.30946">
        <ele>109.843872</ele>
        <time>2012-01-15T08:27:11Z</time>
      </trkpt>
      <trkpt lat="46.53173" lon="0.30957">
        <ele>109.468903</ele>
        <time>2012-01-15T08:27:13Z</time>
      </trkpt>
      <trkpt lat="46.5315" lon="0.30987">
        <ele>106.461876</ele>
        <time>2012-01-15T08:27:18Z</time>
      </trkpt>
      <trkpt lat="46.53137" lon="0.31004">
        <ele>105.553909</ele>
        <time>2012-01-15T08:27:21Z</time>
      </trkpt>
      <trkpt lat="46.5312" lon="0.31024">
        <ele>105.602837</ele>
        <time>2012-01-15T08:27:25Z</time>
      </trkpt>
      <trkpt lat="46.53091" lon="0.31054">
        <ele>101.083778</ele>
        <time>2012-01-15T08:27:33Z</time>
      </trkpt>
      <trkpt lat="46.53074" lon="0.31074">
        <ele>101.719757</ele>
        <time>2012-01-15T08:27:38Z</time>
      </trkpt>
      <trkpt lat="46.53061" lon="0.31092">
        <ele>99.780128</ele>
        <time>2012-01-15T08:27:42Z</time>
      </trkpt>
      <trkpt lat="46.53047" lon="0.3111">
        <ele>95.456253</ele>
        <time>2012-01-15T08:27:46Z</time>
      </trkpt>
      <trkpt lat="46.5304" lon="0.3112">
        <ele>93.714249</ele>
        <time>2012-01-15T08:27:48Z</time>
      </trkpt>
      <trkpt lat="46.53028" lon="0.31134">
        <ele>93.464676</ele>
        <time>2012-01-15T08:27:52Z</time>
      </trkpt>
      <trkpt lat="46.53009" lon="0.31162">
        <ele>91.022751</ele>
        <time>2012-01-15T08:28:02Z</time>
      </trkpt>
      <trkpt lat="46.53009" lon="0.31162">
        <ele>91.022751</ele>
        <time>2012-01-15T08:28:21Z</time>
      </trkpt>
      <trkpt lat="46.53008" lon="0.31164">
        <ele>90.914001</ele>
        <time>2012-01-15T08:28:42Z</time>
      </trkpt>
      <trkpt lat="46.52998" lon="0.31158">
        <ele>90.124374</ele>
        <time>2012-01-15T08:29:00Z</time>
      </trkpt>
      <trkpt lat="46.52967" lon="0.31124">
        <ele>90.370628</ele>
        <time>2012-01-15T08:29:12Z</time>
      </trkpt>
      <trkpt lat="46.52962" lon="0.31117">
        <ele>91.190132</ele>
        <time>2012-01-15T08:29:15Z</time>
      </trkpt>
      <trkpt lat="46.52948" lon="0.31099">
        <ele>92.941528</ele>
        <time>2012-01-15T08:29:20Z</time>
      </trkpt>
      <trkpt lat="46.52921" lon="0.3104">
        <ele>93.141312</ele>
        <time>2012-01-15T08:29:33Z</time>
      </trkpt>
      <trkpt lat="46.52913" lon="0.30977">
        <ele>93.999199</ele>
        <time>2012-01-15T08:29:45Z</time>
      </trkpt>
      <trkpt lat="46.52911" lon="0.30907">
        <ele>93.384377</ele>
        <time>2012-01-15T08:29:57Z</time>
      </trkpt>
      <trkpt lat="46.5291" lon="0.30884">
        <ele>93.538124</ele>
        <time>2012-01-15T08:30:01Z</time>
      </trkpt>
      <trkpt lat="46.52901" lon="0.30787">
        <ele>94.76844</ele>
        <time>2012-01-15T08:30:15Z</time>
      </trkpt>
      <trkpt lat="46.52894" lon="0.30721">
        <ele>96.127647</ele>
        <time>2012-01-15T08:30:27Z</time>
      </trkpt>
      <trkpt lat="46.52887" lon="0.30688">
        <ele>95.407303</ele>
        <time>2012-01-15T08:30:32Z</time>
      </trkpt>
      <trkpt lat="46.52875" lon="0.3064">
        <ele>93.600616</ele>
        <time>2012-01-15T08:30:40Z</time>
      </trkpt>
      <trkpt lat="46.52872" lon="0.30628">
        <ele>93.074898</ele>
        <time>2012-01-15T08:30:42Z</time>
      </trkpt>
      <trkpt lat="46.52857" lon="0.30553">
        <ele>91.390625</ele>
        <time>2012-01-15T08:30:54Z</time>
      </trkpt>
      <trkpt lat="46.52857" lon="0.30481">
        <ele>92.556122</ele>
        <time>2012-01-15T08:31:07Z</time>
      </trkpt>
      <trkpt lat="46.52867" lon="0.30453">
        <ele>95.313751</ele>
        <time>2012-01-15T08:31:14Z</time>
      </trkpt>
      <trkpt lat="46.52877" lon="0.30432">
        <ele>98.280624</ele>
        <time>2012-01-15T08:31:23Z</time>
      </trkpt>
      <trkpt lat="46.5288" lon="0.30423">
        <ele>99.125</ele>
        <time>2012-01-15T08:31:26Z</time>
      </trkpt>
      <trkpt lat="46.52885" lon="0.30415">
        <ele>100.621872</ele>
        <time>2012-01-15T08:31:29Z</time>
      </trkpt>
      <trkpt lat="46.52893" lon="0.30397">
        <ele>102.199249</ele>
        <time>2012-01-15T08:31:35Z</time>
      </trkpt>
      <trkpt lat="46.52903" lon="0.30348">
        <ele>102.451927</ele>
        <time>2012-01-15T08:31:47Z</time>
      </trkpt>
      <trkpt lat="46.529" lon="0.3026">
        <ele>96.572632</ele>
        <time>2012-01-15T08:31:58Z</time>
      </trkpt>
      <trkpt lat="46.52899" lon="0.30251">
        <ele>95.597054</ele>
        <time>2012-01-15T08:31:59Z</time>
      </trkpt>
      <trkpt lat="46.52897" lon="0.3023">
        <ele>93.447235</ele>
        <time>2012-01-15T08:32:01Z</time>
      </trkpt>
      <trkpt lat="46.52893" lon="0.30198">
        <ele>91.13784</ele>
        <time>2012-01-15T08:32:04Z</time>
      </trkpt>
      <trkpt lat="46.52887" lon="0.30125">
        <ele>88.834999</ele>
        <time>2012-01-15T08:32:14Z</time>
      </trkpt>
      <trkpt lat="46.52874" lon="0.30117">
        <ele>88.555</ele>
        <time>2012-01-15T08:32:19Z</time>
      </trkpt>
      <trkpt lat="46.52823" lon="0.30109">
        <ele>88</ele>
        <time>2012-01-15T08:32:33Z</time>
      </trkpt>
      <trkpt lat="46.52782" lon="0.30142">
        <ele>88</ele>
        <time>2012-01-15T08:32:44Z</time>
      </trkpt>
      <trkpt lat="46.52768" lon="0.30159">
        <ele>88.087135</ele>
        <time>2012-01-15T08:32:47Z</time>
      </trkpt>
      <trkpt lat="46.52759" lon="0.30169">
        <ele>88.332634</ele>
        <time>2012-01-15T08:32:49Z</time>
      </trkpt>
      <trkpt lat="46.52737" lon="0.30182">
        <ele>89.710701</ele>
        <time>2012-01-15T08:32:54Z</time>
      </trkpt>
      <trkpt lat="46.52727" lon="0.30183">
        <ele>90.237419</ele>
        <time>2012-01-15T08:32:56Z</time>
      </trkpt>
      <trkpt lat="46.52714" lon="0.3018">
        <ele>90.906677</ele>
        <time>2012-01-15T08:32:59Z</time>
      </trkpt>
      <trkpt lat="46.52698" lon="0.30171">
        <ele>91.600937</ele>
        <time>2012-01-15T08:33:03Z</time>
      </trkpt>
      <trkpt lat="46.52649" lon="0.30144">
        <ele>93.956436</ele>
        <time>2012-01-15T08:33:18Z</time>
      </trkpt>
      <trkpt lat="46.5261" lon="0.30168">
        <ele>101.079422</ele>
        <time>2012-01-15T08:33:30Z</time>
      </trkpt>
      <trkpt lat="46.52568" lon="0.30164">
        <ele>102.869377</ele>
        <time>2012-01-15T08:33:43Z</time>
      </trkpt>
      <trkpt lat="46.52557" lon="0.30148">
        <ele>100.901352</ele>
        <time>2012-01-15T08:33:48Z</time>
      </trkpt>
      <trkpt lat="46.52546" lon="0.30128">
        <ele>99.478127</ele>
        <time>2012-01-15T08:33:53Z</time>
      </trkpt>
      <trkpt lat="46.52499" lon="0.30067">
        <ele>102.057579</ele>
        <time>2012-01-15T08:34:07Z</time>
      </trkpt>
      <trkpt lat="46.52484" lon="0.30054">
        <ele>102.528</ele>
        <time>2012-01-15T08:34:11Z</time>
      </trkpt>
      <trkpt lat="46.52468" lon="0.30037">
        <ele>103.112015</ele>
        <time>2012-01-15T08:34:16Z</time>
      </trkpt>
      <trkpt lat="46.5246" lon="0.30026">
        <ele>103.298653</ele>
        <time>2012-01-15T08:34:20Z</time>
      </trkpt>
      <trkpt lat="46.52453" lon="0.30014">
        <ele>103.087074</ele>
        <time>2012-01-15T08:34:24Z</time>
      </trkpt>
      <trkpt lat="46.52447" lon="0.30002">
        <ele>102.215797</ele>
        <time>2012-01-15T08:34:28Z</time>
      </trkpt>
      <trkpt lat="46.52428" lon="0.29958">
        <ele>99.859642</ele>
        <time>2012-01-15T08:34:40Z</time>
      </trkpt>
      <trkpt lat="46.52412" lon="0.29917">
        <ele>99.693863</ele>
        <time>2012-01-15T08:34:52Z</time>
      </trkpt>
      <trkpt lat="46.52401" lon="0.29882">
        <ele>98.897484</ele>
        <time>2012-01-15T08:35:01Z</time>
      </trkpt>
      <trkpt lat="46.5238" lon="0.29843">
        <ele>100.490166</ele>
        <time>2012-01-15T08:35:10Z</time>
      </trkpt>
      <trkpt lat="46.52352" lon="0.298">
        <ele>102.245773</ele>
        <time>2012-01-15T08:35:23Z</time>
      </trkpt>
      <trkpt lat="46.52324" lon="0.29765">
        <ele>103.713135</ele>
        <time>2012-01-15T08:35:35Z</time>
      </trkpt>
      <trkpt lat="46.52306" lon="0.29745">
        <ele>103.803566</ele>
        <time>2012-01-15T08:35:41Z</time>
      </trkpt>
      <trkpt lat="46.52268" lon="0.2972">
        <ele>102.888596</ele>
        <time>2012-01-15T08:35:52Z</time>
      </trkpt>
      <trkpt lat="46.52265" lon="0.2972">
        <ele>103.329025</ele>
        <time>2012-01-15T08:35:53Z</time>
      </trkpt>
      <trkpt lat="46.52247" lon="0.29728">
        <ele>105.834702</ele>
        <time>2012-01-15T08:36:01Z</time>
      </trkpt>
      <trkpt lat="46.52221" lon="0.29721">
        <ele>105.653999</ele>
        <time>2012-01-15T08:36:12Z</time>
      </trkpt>
      <trkpt lat="46.52212" lon="0.29717">
        <ele>105.138672</ele>
        <time>2012-01-15T08:36:16Z</time>
      </trkpt>
      <trkpt lat="46.52204" lon="0.2971">
        <ele>104.915558</ele>
        <time>2012-01-15T08:36:21Z</time>
      </trkpt>
      <trkpt lat="46.52198" lon="0.29706">
        <ele>105.093887</ele>
        <time>2012-01-15T08:36:25Z</time>
      </trkpt>
      <trkpt lat="46.52193" lon="0.29704">
        <ele>105.31311</ele>
        <time>2012-01-15T08:36:27Z</time>
      </trkpt>
      <trkpt lat="46.52177" lon="0.29698">
        <ele>106.18766</ele>
        <time>2012-01-15T08:36:35Z</time>
      </trkpt>
      <trkpt lat="46.5216" lon="0.29695">
        <ele>107.745926</ele>
        <time>2012-01-15T08:36:46Z</time>
      </trkpt>
      <trkpt lat="46.52157" lon="0.29701">
        <ele>109.10907</ele>
        <time>2012-01-15T08:36:51Z</time>
      </trkpt>
      <trkpt lat="46.52155" lon="0.2972">
        <ele>112.293999</ele>
        <time>2012-01-15T08:37:04Z</time>
      </trkpt>
      <trkpt lat="46.52158" lon="0.29735">
        <ele>114.364487</ele>
        <time>2012-01-15T08:37:15Z</time>
      </trkpt>
      <trkpt lat="46.52161" lon="0.29747">
        <ele>116.084938</ele>
        <time>2012-01-15T08:37:25Z</time>
      </trkpt>
      <trkpt lat="46.52165" lon="0.29761">
        <ele>118.134529</ele>
        <time>2012-01-15T08:37:40Z</time>
      </trkpt>
      <trkpt lat="46.52169" lon="0.29772">
        <ele>119.868965</ele>
        <time>2012-01-15T08:37:53Z</time>
      </trkpt>
      <trkpt lat="46.5217" lon="0.29775">
        <ele>120.293304</ele>
        <time>2012-01-15T08:38:06Z</time>
      </trkpt>
      <trkpt lat="46.5217" lon="0.29778">
        <ele>120.800346</ele>
        <time>2012-01-15T08:38:21Z</time>
      </trkpt>
      <trkpt lat="46.52171" lon="0.298">
        <ele>123.656075</ele>
        <time>2012-01-15T08:38:33Z</time>
      </trkpt>
      <trkpt lat="46.52172" lon="0.29806">
        <ele>124.180473</ele>
        <time>2012-01-15T08:38:41Z</time>
      </trkpt>
      <trkpt lat="46.52175" lon="0.29816">
        <ele>125.197281</ele>
        <time>2012-01-15T08:38:46Z</time>
      </trkpt>
      <trkpt lat="46.52178" lon="0.29835">
        <ele>127.201981</ele>
        <time>2012-01-15T08:38:54Z</time>
      </trkpt>
      <trkpt lat="46.52178" lon="0.29843">
        <ele>127.970001</ele>
        <time>2012-01-15T08:38:58Z</time>
      </trkpt>
      <trkpt lat="46.5218" lon="0.29874">
        <ele>130.318008</ele>
        <time>2012-01-15T08:39:13Z</time>
      </trkpt>
      <trkpt lat="46.52187" lon="0.29911">
        <ele>132.822632</ele>
        <time>2012-01-15T08:39:29Z</time>
      </trkpt>
      <trkpt lat="46.52183" lon="0.29942">
        <ele>133.445618</ele>
        <time>2012-01-15T08:39:42Z</time>
      </trkpt>
      <trkpt lat="46.52161" lon="0.29978">
        <ele>133.746353</ele>
        <time>2012-01-15T08:39:58Z</time>
      </trkpt>
      <trkpt lat="46.52142" lon="0.30008">
        <ele>133.187485</ele>
        <time>2012-01-15T08:40:10Z</time>
      </trkpt>
      <trkpt lat="46.52149" lon="0.30026">
        <ele>133.137695</ele>
        <time>2012-01-15T08:40:17Z</time>
      </trkpt>
      <trkpt lat="46.52186" lon="0.30048">
        <ele>133.229996</ele>
        <time>2012-01-15T08:40:32Z</time>
      </trkpt>
      <trkpt lat="46.52215" lon="0.30081">
        <ele>133.339996</ele>
        <time>2012-01-15T08:40:46Z</time>
      </trkpt>
      <trkpt lat="46.52241" lon="0.30128">
        <ele>132.209457</ele>
        <time>2012-01-15T08:41:01Z</time>
      </trkpt>
      <trkpt lat="46.52255" lon="0.30168">
        <ele>130.365479</ele>
        <time>2012-01-15T08:41:13Z</time>
      </trkpt>
      <trkpt lat="46.52263" lon="0.30213">
        <ele>126.907066</ele>
        <time>2012-01-15T08:41:24Z</time>
      </trkpt>
      <trkpt lat="46.52264" lon="0.30218">
        <ele>126.516052</ele>
        <time>2012-01-15T08:41:25Z</time>
      </trkpt>
      <trkpt lat="46.52276" lon="0.30248">
        <ele>123.159622</ele>
        <time>2012-01-15T08:41:32Z</time>
      </trkpt>
      <trkpt lat="46.52279" lon="0.30251">
        <ele>122.620003</ele>
        <time>2012-01-15T08:41:33Z</time>
      </trkpt>
      <trkpt lat="46.52291" lon="0.3026">
        <ele>120.814041</ele>
        <time>2012-01-15T08:41:36Z</time>
      </trkpt>
      <trkpt lat="46.52307" lon="0.30266">
        <ele>118.97123</ele>
        <time>2012-01-15T08:41:40Z</time>
      </trkpt>
      <trkpt lat="46.52323" lon="0.30265">
        <ele>118.143723</ele>
        <time>2012-01-15T08:41:43Z</time>
      </trkpt>
      <trkpt lat="46.52358" lon="0.30253">
        <ele>116.58812</ele>
        <time>2012-01-15T08:41:48Z</time>
      </trkpt>
      <trkpt lat="46.52371" lon="0.30251">
        <ele>115.743156</ele>
        <time>2012-01-15T08:41:50Z</time>
      </trkpt>
      <trkpt lat="46.52391" lon="0.30256">
        <ele>114.785278</ele>
        <time>2012-01-15T08:41:54Z</time>
      </trkpt>
      <trkpt lat="46.5241" lon="0.30265">
        <ele>115.216713</ele>
        <time>2012-01-15T08:41:59Z</time>
      </trkpt>
      <trkpt lat="46.52419" lon="0.30263">
        <ele>115.20977</ele>
        <time>2012-01-15T08:42:02Z</time>
      </trkpt>
      <trkpt lat="46.52424" lon="0.30261">
        <ele>115.043747</ele>
        <time>2012-01-15T08:42:04Z</time>
      </trkpt>
      <trkpt lat="46.52461" lon="0.30249">
        <ele>114.236832</ele>
        <time>2012-01-15T08:42:14Z</time>
      </trkpt>
      <trkpt lat="46.52467" lon="0.30249">
        <ele>114.398514</ele>
        <time>2012-01-15T08:42:16Z</time>
      </trkpt>
      <trkpt lat="46.52489" lon="0.3025">
        <ele>115.308128</ele>
        <time>2012-01-15T08:42:21Z</time>
      </trkpt>
      <trkpt lat="46.52519" lon="0.30242">
        <ele>115.827454</ele>
        <time>2012-01-15T08:42:31Z</time>
      </trkpt>
      <trkpt lat="46.52549" lon="0.30232">
        <ele>115.74305</ele>
        <time>2012-01-15T08:42:42Z</time>
      </trkpt>
      <trkpt lat="46.52555" lon="0.30234">
        <ele>115.962982</ele>
        <time>2012-01-15T08:42:46Z</time>
      </trkpt>
      <trkpt lat="46.52578" lon="0.30251">
        <ele>117.911331</ele>
        <time>2012-01-15T08:42:57Z</time>
      </trkpt>
      <trkpt lat="46.52601" lon="0.30271">
        <ele>117.981873</ele>
        <time>2012-01-15T08:43:08Z</time>
      </trkpt>
      <trkpt lat="46.52615" lon="0.30292">
        <ele>118.473747</ele>
        <time>2012-01-15T08:43:16Z</time>
      </trkpt>
      <trkpt lat="46.52626" lon="0.30326">
        <ele>118.43</ele>
        <time>2012-01-15T08:43:28Z</time>
      </trkpt>
      <trkpt lat="46.52628" lon="0.30362">
        <ele>119.208221</ele>
        <time>2012-01-15T08:43:38Z</time>
      </trkpt>
      <trkpt lat="46.52628" lon="0.30367">
        <ele>119.269676</ele>
        <time>2012-01-15T08:43:40Z</time>
      </trkpt>
      <trkpt lat="46.52629" lon="0.30391">
        <ele>119.61544</ele>
        <time>2012-01-15T08:43:51Z</time>
      </trkpt>
      <trkpt lat="46.52633" lon="0.30402">
        <ele>118.728271</ele>
        <time>2012-01-15T08:44:02Z</time>
      </trkpt>
      <trkpt lat="46.52633" lon="0.30402">
        <ele>118.728271</ele>
        <time>2012-01-15T08:44:03Z</time>
      </trkpt>
      <trkpt lat="46.52634" lon="0.30406">
        <ele>118.595879</ele>
        <time>2012-01-15T08:44:05Z</time>
      </trkpt>
      <trkpt lat="46.52635" lon="0.30413">
        <ele>118.431435</ele>
        <time>2012-01-15T08:44:10Z</time>
      </trkpt>
      <trkpt lat="46.52638" lon="0.3043">
        <ele>118.072891</ele>
        <time>2012-01-15T08:44:21Z</time>
      </trkpt>
      <trkpt lat="46.52635" lon="0.3045">
        <ele>119.352974</ele>
        <time>2012-01-15T08:44:29Z</time>
      </trkpt>
      <trkpt lat="46.52635" lon="0.30464">
        <ele>120.096115</ele>
        <time>2012-01-15T08:44:34Z</time>
      </trkpt>
      <trkpt lat="46.52634" lon="0.30481">
        <ele>121.023483</ele>
        <time>2012-01-15T08:44:41Z</time>
      </trkpt>
      <trkpt lat="46.52637" lon="0.30504">
        <ele>121.213753</ele>
        <time>2012-01-15T08:44:49Z</time>
      </trkpt>
      <trkpt lat="46.52634" lon="0.30539">
        <ele>123.809998</ele>
        <time>2012-01-15T08:45:01Z</time>
      </trkpt>
      <trkpt lat="46.52633" lon="0.3056">
        <ele>125.262848</ele>
        <time>2012-01-15T08:45:09Z</time>
      </trkpt>
      <trkpt lat="46.52632" lon="0.30572">
        <ele>126.129341</ele>
        <time>2012-01-15T08:45:13Z</time>
      </trkpt>
      <trkpt lat="46.52622" lon="0.30613">
        <ele>128.221481</ele>
        <time>2012-01-15T08:45:26Z</time>
      </trkpt>
      <trkpt lat="46.52608" lon="0.30657">
        <ele>128.939438</ele>
        <time>2012-01-15T08:45:39Z</time>
      </trkpt>
      <trkpt lat="46.5259" lon="0.30703">
        <ele>130.316879</ele>
        <time>2012-01-15T08:45:55Z</time>
      </trkpt>
      <trkpt lat="46.52583" lon="0.30713">
        <ele>130.662506</ele>
        <time>2012-01-15T08:46:04Z</time>
      </trkpt>
      <trkpt lat="46.52587" lon="0.30713">
        <ele>130.568756</ele>
        <time>2012-01-15T08:46:18Z</time>
      </trkpt>
      <trkpt lat="46.52587" lon="0.30713">
        <ele>130.568756</ele>
        <time>2012-01-15T08:46:39Z</time>
      </trkpt>
      <trkpt lat="46.52587" lon="0.30713">
        <ele>130.567505</ele>
        <time>2012-01-15T08:46:56Z</time>
      </trkpt>
      <trkpt lat="46.52587" lon="0.30713">
        <ele>130.567505</ele>
        <time>2012-01-15T08:47:23Z</time>
      </trkpt>
      <trkpt lat="46.52587" lon="0.30713">
        <ele>130.573746</ele>
        <time>2012-01-15T08:47:46Z</time>
      </trkpt>
      <trkpt lat="46.52587" lon="0.30714">
        <ele>130.576874</ele>
        <time>2012-01-15T08:48:14Z</time>
      </trkpt>
      <trkpt lat="46.52587" lon="0.30714">
        <ele>130.576874</ele>
        <time>2012-01-15T08:48:33Z</time>
      </trkpt>
      <trkpt lat="46.52587" lon="0.30713">
        <ele>130.558746</ele>
        <time>2012-01-15T08:48:58Z</time>
      </trkpt>
      <trkpt lat="46.52587" lon="0.30713">
        <ele>130.558746</ele>
        <time>2012-01-15T08:49:23Z</time>
      </trkpt>
      <trkpt lat="46.52587" lon="0.30713">
        <ele>130.549377</ele>
        <time>2012-01-15T08:49:43Z</time>
      </trkpt>
      <trkpt lat="46.52587" lon="0.30713">
        <ele>130.549377</ele>
        <time>2012-01-15T08:50:05Z</time>
      </trkpt>
      <trkpt lat="46.52588" lon="0.30712">
        <ele>130.533127</ele>
        <time>2012-01-15T08:50:23Z</time>
      </trkpt>
      <trkpt lat="46.52588" lon="0.30713">
        <ele>130.531876</ele>
        <time>2012-01-15T08:50:51Z</time>
      </trkpt>
      <trkpt lat="46.52596" lon="0.30712">
        <ele>130.213745</ele>
        <time>2012-01-15T08:51:06Z</time>
      </trkpt>
      <trkpt lat="46.5262" lon="0.30716">
        <ele>129.223755</ele>
        <time>2012-01-15T08:51:18Z</time>
      </trkpt>
      <trkpt lat="46.52632" lon="0.30716">
        <ele>128.706253</ele>
        <time>2012-01-15T08:51:24Z</time>
      </trkpt>
      <trkpt lat="46.52636" lon="0.30715">
        <ele>128.398727</ele>
        <time>2012-01-15T08:51:27Z</time>
      </trkpt>
      <trkpt lat="46.52644" lon="0.3072">
        <ele>127.506836</ele>
        <time>2012-01-15T08:51:31Z</time>
      </trkpt>
      <trkpt lat="46.52665" lon="0.30728">
        <ele>125.34021</ele>
        <time>2012-01-15T08:51:37Z</time>
      </trkpt>
      <trkpt lat="46.52684" lon="0.3074">
        <ele>122.825996</ele>
        <time>2012-01-15T08:51:43Z</time>
      </trkpt>
      <trkpt lat="46.52697" lon="0.30752">
        <ele>119.152328</ele>
        <time>2012-01-15T08:51:50Z</time>
      </trkpt>
      <trkpt lat="46.52698" lon="0.30754">
        <ele>119.035614</ele>
        <time>2012-01-15T08:51:51Z</time>
      </trkpt>
      <trkpt lat="46.52705" lon="0.30776">
        <ele>117.841698</ele>
        <time>2012-01-15T08:52:02Z</time>
      </trkpt>
      <trkpt lat="46.52707" lon="0.30789">
        <ele>117.947769</ele>
        <time>2012-01-15T08:52:12Z</time>
      </trkpt>
      <trkpt lat="46.52707" lon="0.30794">
        <ele>118.07885</ele>
        <time>2012-01-15T08:52:16Z</time>
      </trkpt>
      <trkpt lat="46.52704" lon="0.30807">
        <ele>119.453835</ele>
        <time>2012-01-15T08:52:28Z</time>
      </trkpt>
      <trkpt lat="46.52704" lon="0.30813">
        <ele>119.597504</ele>
        <time>2012-01-15T08:52:34Z</time>
      </trkpt>
      <trkpt lat="46.52703" lon="0.30828">
        <ele>120.030197</ele>
        <time>2012-01-15T08:52:43Z</time>
      </trkpt>
      <trkpt lat="46.52708" lon="0.30846">
        <ele>119.32325</ele>
        <time>2012-01-15T08:52:48Z</time>
      </trkpt>
      <trkpt lat="46.52716" lon="0.3087">
        <ele>118.394409</ele>
        <time>2012-01-15T08:52:56Z</time>
      </trkpt>
      <trkpt lat="46.52719" lon="0.30887">
        <ele>118.108925</ele>
        <time>2012-01-15T08:52:59Z</time>
      </trkpt>
      <trkpt lat="46.52726" lon="0.30925">
        <ele>118.021065</ele>
        <time>2012-01-15T08:53:06Z</time>
      </trkpt>
      <trkpt lat="46.52726" lon="0.30945">
        <ele>118.867737</ele>
        <time>2012-01-15T08:53:10Z</time>
      </trkpt>
      <trkpt lat="46.52729" lon="0.30986">
        <ele>120.386658</ele>
        <time>2012-01-15T08:53:19Z</time>
      </trkpt>
      <trkpt lat="46.52736" lon="0.3102">
        <ele>120.205559</ele>
        <time>2012-01-15T08:53:26Z</time>
      </trkpt>
      <trkpt lat="46.52747" lon="0.31064">
        <ele>119.926079</ele>
        <time>2012-01-15T08:53:35Z</time>
      </trkpt>
      <trkpt lat="46.52753" lon="0.31104">
        <ele>121.340752</ele>
        <time>2012-01-15T08:53:44Z</time>
      </trkpt>
      <trkpt lat="46.52759" lon="0.31138">
        <ele>122.779999</ele>
        <time>2012-01-15T08:53:53Z</time>
      </trkpt>
      <trkpt lat="46.52756" lon="0.31151">
        <ele>123.757126</ele>
        <time>2012-01-15T08:53:57Z</time>
      </trkpt>
      <trkpt lat="46.52755" lon="0.31153">
        <ele>123.997162</ele>
        <time>2012-01-15T08:53:58Z</time>
      </trkpt>
      <trkpt lat="46.52757" lon="0.31166">
        <ele>124.427048</ele>
        <time>2012-01-15T08:54:02Z</time>
      </trkpt>
      <trkpt lat="46.52757" lon="0.31172">
        <ele>124.754799</ele>
        <time>2012-01-15T08:54:04Z</time>
      </trkpt>
      <trkpt lat="46.52768" lon="0.31207">
        <ele>125.243103</ele>
        <time>2012-01-15T08:54:16Z</time>
      </trkpt>
      <trkpt lat="46.52777" lon="0.31241">
        <ele>125.541878</ele>
        <time>2012-01-15T08:54:26Z</time>
      </trkpt>
      <trkpt lat="46.52782" lon="0.31264">
        <ele>125.767372</ele>
        <time>2012-01-15T08:54:33Z</time>
      </trkpt>
      <trkpt lat="46.52787" lon="0.31295">
        <ele>125.822571</ele>
        <time>2012-01-15T08:54:42Z</time>
      </trkpt>
      <trkpt lat="46.52785" lon="0.31334">
        <ele>126.541725</ele>
        <time>2012-01-15T08:54:53Z</time>
      </trkpt>
      <trkpt lat="46.52787" lon="0.31382">
        <ele>125.872986</ele>
        <time>2012-01-15T08:55:05Z</time>
      </trkpt>
      <trkpt lat="46.52784" lon="0.31387">
        <ele>125.929504</ele>
        <time>2012-01-15T08:55:07Z</time>
      </trkpt>
      <trkpt lat="46.52755" lon="0.31406">
        <ele>126.473129</ele>
        <time>2012-01-15T08:55:19Z</time>
      </trkpt>
      <trkpt lat="46.52723" lon="0.3143">
        <ele>126.375504</ele>
        <time>2012-01-15T08:55:28Z</time>
      </trkpt>
      <trkpt lat="46.52713" lon="0.31437">
        <ele>126.139984</ele>
        <time>2012-01-15T08:55:32Z</time>
      </trkpt>
      <trkpt lat="46.52693" lon="0.31427">
        <ele>126.453125</ele>
        <time>2012-01-15T08:55:42Z</time>
      </trkpt>
      <trkpt lat="46.52659" lon="0.31425">
        <ele>126.209244</ele>
        <time>2012-01-15T08:55:51Z</time>
      </trkpt>
      <trkpt lat="46.52652" lon="0.31424">
        <ele>126.165497</ele>
        <time>2012-01-15T08:55:53Z</time>
      </trkpt>
      <trkpt lat="46.52609" lon="0.31413">
        <ele>126.518753</ele>
        <time>2012-01-15T08:56:04Z</time>
      </trkpt>
      <trkpt lat="46.52563" lon="0.3139">
        <ele>125.640274</ele>
        <time>2012-01-15T08:56:15Z</time>
      </trkpt>
      <trkpt lat="46.52526" lon="0.31367">
        <ele>125.185623</ele>
        <time>2012-01-15T08:56:24Z</time>
      </trkpt>
      <trkpt lat="46.52488" lon="0.31335">
        <ele>124.520004</ele>
        <time>2012-01-15T08:56:34Z</time>
      </trkpt>
      <trkpt lat="46.5248" lon="0.31328">
        <ele>124.21875</ele>
        <time>2012-01-15T08:56:36Z</time>
      </trkpt>
      <trkpt lat="46.52454" lon="0.31318">
        <ele>122.543747</ele>
        <time>2012-01-15T08:56:41Z</time>
      </trkpt>
      <trkpt lat="46.52443" lon="0.31312">
        <ele>121.760002</ele>
        <time>2012-01-15T08:56:43Z</time>
      </trkpt>
      <trkpt lat="46.52438" lon="0.31308">
        <ele>121.427498</ele>
        <time>2012-01-15T08:56:44Z</time>
      </trkpt>
      <trkpt lat="46.5242" lon="0.3132">
        <ele>119.603065</ele>
        <time>2012-01-15T08:56:50Z</time>
      </trkpt>
      <trkpt lat="46.52422" lon="0.31346">
        <ele>118.973686</ele>
        <time>2012-01-15T08:56:55Z</time>
      </trkpt>
      <trkpt lat="46.52423" lon="0.31358">
        <ele>118.863625</ele>
        <time>2012-01-15T08:56:57Z</time>
      </trkpt>
      <trkpt lat="46.52438" lon="0.31412">
        <ele>118.384064</ele>
        <time>2012-01-15T08:57:08Z</time>
      </trkpt>
      <trkpt lat="46.52457" lon="0.31461">
        <ele>117.123642</ele>
        <time>2012-01-15T08:57:18Z</time>
      </trkpt>
      <trkpt lat="46.52467" lon="0.31483">
        <ele>116.099998</ele>
        <time>2012-01-15T08:57:22Z</time>
      </trkpt>
      <trkpt lat="46.52477" lon="0.3151">
        <ele>116.300934</ele>
        <time>2012-01-15T08:57:27Z</time>
      </trkpt>
      <trkpt lat="46.52499" lon="0.31551">
        <ele>116.024246</ele>
        <time>2012-01-15T08:57:36Z</time>
      </trkpt>
      <trkpt lat="46.52506" lon="0.3156">
        <ele>115.815323</ele>
        <time>2012-01-15T08:57:41Z</time>
      </trkpt>
      <trkpt lat="46.52508" lon="0.31587">
        <ele>115.552803</ele>
        <time>2012-01-15T08:57:50Z</time>
      </trkpt>
      <trkpt lat="46.52507" lon="0.31591">
        <ele>115.592545</ele>
        <time>2012-01-15T08:57:52Z</time>
      </trkpt>
      <trkpt lat="46.52507" lon="0.31605">
        <ele>116.275002</ele>
        <time>2012-01-15T08:57:57Z</time>
      </trkpt>
      <trkpt lat="46.52508" lon="0.31619">
        <ele>117.218613</ele>
        <time>2012-01-15T08:58:01Z</time>
      </trkpt>
      <trkpt lat="46.52515" lon="0.31649">
        <ele>119.126518</ele>
        <time>2012-01-15T08:58:10Z</time>
      </trkpt>
      <trkpt lat="46.52524" lon="0.31683">
        <ele>120.690559</ele>
        <time>2012-01-15T08:58:23Z</time>
      </trkpt>
      <trkpt lat="46.52527" lon="0.31692">
        <ele>120.992363</ele>
        <time>2012-01-15T08:58:27Z</time>
      </trkpt>
      <trkpt lat="46.52533" lon="0.31701">
        <ele>121.274063</ele>
        <time>2012-01-15T08:58:33Z</time>
      </trkpt>
      <trkpt lat="46.52536" lon="0.31705">
        <ele>121.338188</ele>
        <time>2012-01-15T08:58:36Z</time>
      </trkpt>
      <trkpt lat="46.52539" lon="0.31712">
        <ele>121.693703</ele>
        <time>2012-01-15T08:58:40Z</time>
      </trkpt>
      <trkpt lat="46.52543" lon="0.31718">
        <ele>121.947144</ele>
        <time>2012-01-15T08:58:43Z</time>
      </trkpt>
      <trkpt lat="46.52563" lon="0.31755">
        <ele>122.479378</ele>
        <time>2012-01-15T08:58:55Z</time>
      </trkpt>
      <trkpt lat="46.5258" lon="0.3179">
        <ele>121.959625</ele>
        <time>2012-01-15T08:59:05Z</time>
      </trkpt>
      <trkpt lat="46.52585" lon="0.31801">
        <ele>121.74897</ele>
        <time>2012-01-15T08:59:08Z</time>
      </trkpt>
      <trkpt lat="46.52598" lon="0.3183">
        <ele>121.738014</ele>
        <time>2012-01-15T08:59:16Z</time>
      </trkpt>
      <trkpt lat="46.52612" lon="0.31855">
        <ele>122.002502</ele>
        <time>2012-01-15T08:59:25Z</time>
      </trkpt>
      <trkpt lat="46.52613" lon="0.31859">
        <ele>122.022499</ele>
        <time>2012-01-15T08:59:26Z</time>
      </trkpt>
      <trkpt lat="46.5263" lon="0.31891">
        <ele>122.348747</ele>
        <time>2012-01-15T08:59:36Z</time>
      </trkpt>
      <trkpt lat="46.5265" lon="0.31934">
        <ele>123.049698</ele>
        <time>2012-01-15T08:59:47Z</time>
      </trkpt>
      <trkpt lat="46.52675" lon="0.31983">
        <ele>124.276764</ele>
        <time>2012-01-15T09:00:00Z</time>
      </trkpt>
      <trkpt lat="46.52693" lon="0.32024">
        <ele>125.307816</ele>
        <time>2012-01-15T09:00:13Z</time>
      </trkpt>
      <trkpt lat="46.52715" lon="0.32063">
        <ele>126.096352</ele>
        <time>2012-01-15T09:00:24Z</time>
      </trkpt>
      <trkpt lat="46.52721" lon="0.32076">
        <ele>126.272011</ele>
        <time>2012-01-15T09:00:28Z</time>
      </trkpt>
      <trkpt lat="46.52723" lon="0.32088">
        <ele>126.517372</ele>
        <time>2012-01-15T09:00:32Z</time>
      </trkpt>
      <trkpt lat="46.52729" lon="0.32121">
        <ele>127.081329</ele>
        <time>2012-01-15T09:00:41Z</time>
      </trkpt>
      <trkpt lat="46.5273" lon="0.32151">
        <ele>127.280907</ele>
        <time>2012-01-15T09:00:48Z</time>
      </trkpt>
      <trkpt lat="46.52731" lon="0.32188">
        <ele>127.449997</ele>
        <time>2012-01-15T09:00:57Z</time>
      </trkpt>
      <trkpt lat="46.52733" lon="0.32232">
        <ele>127.419998</ele>
        <time>2012-01-15T09:01:08Z</time>
      </trkpt>
      <trkpt lat="46.52734" lon="0.32276">
        <ele>127.180916</ele>
        <time>2012-01-15T09:01:18Z</time>
      </trkpt>
      <trkpt lat="46.52735" lon="0.32325">
        <ele>126.869278</ele>
        <time>2012-01-15T09:01:28Z</time>
      </trkpt>
      <trkpt lat="46.52733" lon="0.32383">
        <ele>126.327499</ele>
        <time>2012-01-15T09:01:40Z</time>
      </trkpt>
      <trkpt lat="46.52733" lon="0.3244">
        <ele>125.422501</ele>
        <time>2012-01-15T09:01:52Z</time>
      </trkpt>
      <trkpt lat="46.52731" lon="0.32498">
        <ele>124.486877</ele>
        <time>2012-01-15T09:02:03Z</time>
      </trkpt>
      <trkpt lat="46.52731" lon="0.32504">
        <ele>124.385628</ele>
        <time>2012-01-15T09:02:04Z</time>
      </trkpt>
      <trkpt lat="46.5273" lon="0.32539">
        <ele>123.806252</ele>
        <time>2012-01-15T09:02:09Z</time>
      </trkpt>
      <trkpt lat="46.52729" lon="0.32572">
        <ele>123.263123</ele>
        <time>2012-01-15T09:02:14Z</time>
      </trkpt>
      <trkpt lat="46.5273" lon="0.32584">
        <ele>123.08625</ele>
        <time>2012-01-15T09:02:16Z</time>
      </trkpt>
      <trkpt lat="46.52736" lon="0.32652">
        <ele>122.314247</ele>
        <time>2012-01-15T09:02:28Z</time>
      </trkpt>
      <trkpt lat="46.52754" lon="0.32658">
        <ele>122.828629</ele>
        <time>2012-01-15T09:02:36Z</time>
      </trkpt>
      <trkpt lat="46.52791" lon="0.32648">
        <ele>124.200264</ele>
        <time>2012-01-15T09:02:49Z</time>
      </trkpt>
      <trkpt lat="46.52796" lon="0.32646">
        <ele>124.432922</ele>
        <time>2012-01-15T09:02:51Z</time>
      </trkpt>
      <trkpt lat="46.52804" lon="0.32673">
        <ele>124.312775</ele>
        <time>2012-01-15T09:03:00Z</time>
      </trkpt>
      <trkpt lat="46.52814" lon="0.32726">
        <ele>123.798996</ele>
        <time>2012-01-15T09:03:11Z</time>
      </trkpt>
      <trkpt lat="46.52828" lon="0.3278">
        <ele>123.431931</ele>
        <time>2012-01-15T09:03:22Z</time>
      </trkpt>
      <trkpt lat="46.52832" lon="0.32831">
        <ele>122.302498</ele>
        <time>2012-01-15T09:03:31Z</time>
      </trkpt>
      <trkpt lat="46.52837" lon="0.3285">
        <ele>121.805</ele>
        <time>2012-01-15T09:03:34Z</time>
      </trkpt>
      <trkpt lat="46.52846" lon="0.32874">
        <ele>121.256248</ele>
        <time>2012-01-15T09:03:38Z</time>
      </trkpt>
      <trkpt lat="46.52851" lon="0.32893">
        <ele>120.687309</ele>
        <time>2012-01-15T09:03:41Z</time>
      </trkpt>
      <trkpt lat="46.52855" lon="0.32927">
        <ele>119.216537</ele>
        <time>2012-01-15T09:03:45Z</time>
      </trkpt>
      <trkpt lat="46.5286" lon="0.32967">
        <ele>117.590546</ele>
        <time>2012-01-15T09:03:50Z</time>
      </trkpt>
      <trkpt lat="46.52871" lon="0.33024">
        <ele>115.923126</ele>
        <time>2012-01-15T09:03:56Z</time>
      </trkpt>
      <trkpt lat="46.5288" lon="0.33079">
        <ele>115.606873</ele>
        <time>2012-01-15T09:04:02Z</time>
      </trkpt>
      <trkpt lat="46.52895" lon="0.33158">
        <ele>116.124565</ele>
        <time>2012-01-15T09:04:10Z</time>
      </trkpt>
      <trkpt lat="46.52905" lon="0.33216">
        <ele>114.802086</ele>
        <time>2012-01-15T09:04:16Z</time>
      </trkpt>
      <trkpt lat="46.52915" lon="0.33269">
        <ele>112.744064</ele>
        <time>2012-01-15T09:04:22Z</time>
      </trkpt>
      <trkpt lat="46.52924" lon="0.33315">
        <ele>110.64225</ele>
        <time>2012-01-15T09:04:27Z</time>
      </trkpt>
      <trkpt lat="46.52933" lon="0.33351">
        <ele>108.933746</ele>
        <time>2012-01-15T09:04:31Z</time>
      </trkpt>
      <trkpt lat="46.52937" lon="0.33383">
        <ele>106.739998</ele>
        <time>2012-01-15T09:04:34Z</time>
      </trkpt>
      <trkpt lat="46.52943" lon="0.33411">
        <ele>104.904205</ele>
        <time>2012-01-15T09:04:38Z</time>
      </trkpt>
      <trkpt lat="46.52949" lon="0.33416">
        <ele>104.959297</ele>
        <time>2012-01-15T09:04:41Z</time>
      </trkpt>
      <trkpt lat="46.5296" lon="0.33409">
        <ele>105.990494</ele>
        <time>2012-01-15T09:04:47Z</time>
      </trkpt>
      <trkpt lat="46.52992" lon="0.33399">
        <ele>108.124374</ele>
        <time>2012-01-15T09:04:58Z</time>
      </trkpt>
      <trkpt lat="46.53017" lon="0.33387">
        <ele>110.501251</ele>
        <time>2012-01-15T09:05:08Z</time>
      </trkpt>
      <trkpt lat="46.53048" lon="0.33381">
        <ele>112.835922</ele>
        <time>2012-01-15T09:05:20Z</time>
      </trkpt>
      <trkpt lat="46.53092" lon="0.33373">
        <ele>114.682503</ele>
        <time>2012-01-15T09:05:36Z</time>
      </trkpt>
      <trkpt lat="46.53125" lon="0.33359">
        <ele>115.440002</ele>
        <time>2012-01-15T09:05:49Z</time>
      </trkpt>
      <trkpt lat="46.53157" lon="0.33338">
        <ele>116.710594</ele>
        <time>2012-01-15T09:06:00Z</time>
      </trkpt>
      <trkpt lat="46.53183" lon="0.33302">
        <ele>118.523125</ele>
        <time>2012-01-15T09:06:11Z</time>
      </trkpt>
      <trkpt lat="46.53186" lon="0.33298">
        <ele>118.743752</ele>
        <time>2012-01-15T09:06:12Z</time>
      </trkpt>
      <trkpt lat="46.53194" lon="0.33279">
        <ele>119.80938</ele>
        <time>2012-01-15T09:06:17Z</time>
      </trkpt>
      <trkpt lat="46.53208" lon="0.33276">
        <ele>120.264374</ele>
        <time>2012-01-15T09:06:23Z</time>
      </trkpt>
      <trkpt lat="46.5322" lon="0.33288">
        <ele>119.941254</ele>
        <time>2012-01-15T09:06:27Z</time>
      </trkpt>
      <trkpt lat="46.53239" lon="0.33311">
        <ele>118.611832</ele>
        <time>2012-01-15T09:06:32Z</time>
      </trkpt>
      <trkpt lat="46.53271" lon="0.33433">
        <ele>115.328125</ele>
        <time>2012-01-15T09:06:49Z</time>
      </trkpt>
      <trkpt lat="46.53275" lon="0.33447">
        <ele>115.029999</ele>
        <time>2012-01-15T09:06:51Z</time>
      </trkpt>
      <trkpt lat="46.53291" lon="0.33547">
        <ele>111.307434</ele>
        <time>2012-01-15T09:07:07Z</time>
      </trkpt>
      <trkpt lat="46.5329" lon="0.33573">
        <ele>109.411263</ele>
        <time>2012-01-15T09:07:17Z</time>
      </trkpt>
      <trkpt lat="46.53288" lon="0.3358">
        <ele>108.800919</ele>
        <time>2012-01-15T09:18:50Z</time>
      </trkpt>
      <trkpt lat="46.53286" lon="0.33583">
        <ele>108.473846</ele>
        <time>2012-01-15T09:19:13Z</time>
      </trkpt>
      <trkpt lat="46.53277" lon="0.33579">
        <ele>108.320656</ele>
        <time>2012-01-15T09:19:19Z</time>
      </trkpt>
      <trkpt lat="46.53243" lon="0.33566">
        <ele>107.252205</ele>
        <time>2012-01-15T09:19:31Z</time>
      </trkpt>
      <trkpt lat="46.53221" lon="0.33566">
        <ele>105.666756</ele>
        <time>2012-01-15T09:19:37Z</time>
      </trkpt>
      <trkpt lat="46.53196" lon="0.33568">
        <ele>103.331085</ele>
        <time>2012-01-15T09:19:43Z</time>
      </trkpt>
      <trkpt lat="46.5313" lon="0.33563">
        <ele>99.268188</ele>
        <time>2012-01-15T09:19:58Z</time>
      </trkpt>
      <trkpt lat="46.53106" lon="0.33553">
        <ele>100.304398</ele>
        <time>2012-01-15T09:20:04Z</time>
      </trkpt>
      <trkpt lat="46.53094" lon="0.33554">
        <ele>99.346252</ele>
        <time>2012-01-15T09:20:07Z</time>
      </trkpt>
      <trkpt lat="46.53071" lon="0.3355">
        <ele>98.676491</ele>
        <time>2012-01-15T09:20:12Z</time>
      </trkpt>
      <trkpt lat="46.53042" lon="0.33539">
        <ele>100.146973</ele>
        <time>2012-01-15T09:20:18Z</time>
      </trkpt>
      <trkpt lat="46.53006" lon="0.3353">
        <ele>98.231728</ele>
        <time>2012-01-15T09:20:26Z</time>
      </trkpt>
      <trkpt lat="46.52978" lon="0.33512">
        <ele>98.220795</ele>
        <time>2012-01-15T09:20:33Z</time>
      </trkpt>
      <trkpt lat="46.52966" lon="0.33484">
        <ele>100.480598</ele>
        <time>2012-01-15T09:20:38Z</time>
      </trkpt>
      <trkpt lat="46.52959" lon="0.33479">
        <ele>100.53215</ele>
        <time>2012-01-15T09:20:40Z</time>
      </trkpt>
      <trkpt lat="46.5295" lon="0.33475">
        <ele>100.359169</ele>
        <time>2012-01-15T09:20:42Z</time>
      </trkpt>
      <trkpt lat="46.52929" lon="0.33466">
        <ele>100.273247</ele>
        <time>2012-01-15T09:20:46Z</time>
      </trkpt>
      <trkpt lat="46.52888" lon="0.33445">
        <ele>99.614212</ele>
        <time>2012-01-15T09:20:52Z</time>
      </trkpt>
      <trkpt lat="46.5288" lon="0.33443">
        <ele>99.340149</ele>
        <time>2012-01-15T09:20:53Z</time>
      </trkpt>
      <trkpt lat="46.52852" lon="0.3344">
        <ele>98.190735</ele>
        <time>2012-01-15T09:20:57Z</time>
      </trkpt>
      <trkpt lat="46.52836" lon="0.33445">
        <ele>97.427063</ele>
        <time>2012-01-15T09:21:00Z</time>
      </trkpt>
      <trkpt lat="46.52824" lon="0.33451">
        <ele>96.722679</ele>
        <time>2012-01-15T09:21:02Z</time>
      </trkpt>
      <trkpt lat="46.52785" lon="0.33453">
        <ele>95.533897</ele>
        <time>2012-01-15T09:21:09Z</time>
      </trkpt>
      <trkpt lat="46.52768" lon="0.33448">
        <ele>95.540955</ele>
        <time>2012-01-15T09:21:12Z</time>
      </trkpt>
      <trkpt lat="46.52746" lon="0.33436">
        <ele>96.099762</ele>
        <time>2012-01-15T09:21:16Z</time>
      </trkpt>
      <trkpt lat="46.52675" lon="0.33428">
        <ele>94.033791</ele>
        <time>2012-01-15T09:21:28Z</time>
      </trkpt>
      <trkpt lat="46.52649" lon="0.33423">
        <ele>92.420708</ele>
        <time>2012-01-15T09:21:32Z</time>
      </trkpt>
      <trkpt lat="46.52617" lon="0.33396">
        <ele>92.701797</ele>
        <time>2012-01-15T09:21:38Z</time>
      </trkpt>
      <trkpt lat="46.52598" lon="0.33371">
        <ele>93.209282</ele>
        <time>2012-01-15T09:21:42Z</time>
      </trkpt>
      <trkpt lat="46.52593" lon="0.33359">
        <ele>93.686279</ele>
        <time>2012-01-15T09:21:44Z</time>
      </trkpt>
      <trkpt lat="46.52582" lon="0.33339">
        <ele>94.218452</ele>
        <time>2012-01-15T09:21:48Z</time>
      </trkpt>
      <trkpt lat="46.52573" lon="0.33291">
        <ele>96.340256</ele>
        <time>2012-01-15T09:21:58Z</time>
      </trkpt>
      <trkpt lat="46.52557" lon="0.33263">
        <ele>96.139984</ele>
        <time>2012-01-15T09:22:07Z</time>
      </trkpt>
      <trkpt lat="46.52551" lon="0.33252">
        <ele>96.694138</ele>
        <time>2012-01-15T09:22:15Z</time>
      </trkpt>
      <trkpt lat="46.52547" lon="0.33247">
        <ele>97.222404</ele>
        <time>2012-01-15T09:22:20Z</time>
      </trkpt>
      <trkpt lat="46.52541" lon="0.33248">
        <ele>97.493126</ele>
        <time>2012-01-15T09:22:24Z</time>
      </trkpt>
      <trkpt lat="46.52517" lon="0.33274">
        <ele>97.153748</ele>
        <time>2012-01-15T09:22:35Z</time>
      </trkpt>
      <trkpt lat="46.52502" lon="0.3327">
        <ele>98.560623</ele>
        <time>2012-01-15T09:22:40Z</time>
      </trkpt>
      <trkpt lat="46.52454" lon="0.33247">
        <ele>99.57</ele>
        <time>2012-01-15T09:22:57Z</time>
      </trkpt>
      <trkpt lat="46.52441" lon="0.33241">
        <ele>99.7425</ele>
        <time>2012-01-15T09:23:02Z</time>
      </trkpt>
      <trkpt lat="46.52444" lon="0.33225">
        <ele>101.112503</ele>
        <time>2012-01-15T09:23:10Z</time>
      </trkpt>
      <trkpt lat="46.52459" lon="0.33185">
        <ele>104.937622</ele>
        <time>2012-01-15T09:23:25Z</time>
      </trkpt>
      <trkpt lat="46.5247" lon="0.33148">
        <ele>107.410301</ele>
        <time>2012-01-15T09:23:37Z</time>
      </trkpt>
      <trkpt lat="46.52482" lon="0.331">
        <ele>109.519928</ele>
        <time>2012-01-15T09:23:49Z</time>
      </trkpt>
      <trkpt lat="46.52465" lon="0.33057">
        <ele>110.199753</ele>
        <time>2012-01-15T09:24:03Z</time>
      </trkpt>
      <trkpt lat="46.52462" lon="0.33047">
        <ele>110.3358</ele>
        <time>2012-01-15T09:24:15Z</time>
      </trkpt>
      <trkpt lat="46.52461" lon="0.33044">
        <ele>110.394913</ele>
        <time>2012-01-15T09:24:22Z</time>
      </trkpt>
      <trkpt lat="46.52462" lon="0.33042">
        <ele>110.302666</ele>
        <time>2012-01-15T09:24:28Z</time>
      </trkpt>
      <trkpt lat="46.52451" lon="0.33012">
        <ele>110.621887</ele>
        <time>2012-01-15T09:24:37Z</time>
      </trkpt>
      <trkpt lat="46.52422" lon="0.32941">
        <ele>111.230003</ele>
        <time>2012-01-15T09:24:49Z</time>
      </trkpt>
      <trkpt lat="46.52394" lon="0.32873">
        <ele>112.595726</ele>
        <time>2012-01-15T09:25:02Z</time>
      </trkpt>
      <trkpt lat="46.52378" lon="0.32874">
        <ele>112.766098</ele>
        <time>2012-01-15T09:25:07Z</time>
      </trkpt>
      <trkpt lat="46.5232" lon="0.32906">
        <ele>111.308502</ele>
        <time>2012-01-15T09:25:23Z</time>
      </trkpt>
      <trkpt lat="46.52314" lon="0.3291">
        <ele>111</ele>
        <time>2012-01-15T09:25:25Z</time>
      </trkpt>
      <trkpt lat="46.52306" lon="0.32915">
        <ele>110.623238</ele>
        <time>2012-01-15T09:25:27Z</time>
      </trkpt>
      <trkpt lat="46.52287" lon="0.3293">
        <ele>109.405502</ele>
        <time>2012-01-15T09:25:32Z</time>
      </trkpt>
      <trkpt lat="46.52274" lon="0.32939">
        <ele>108.414696</ele>
        <time>2012-01-15T09:25:35Z</time>
      </trkpt>
      <trkpt lat="46.52247" lon="0.32963">
        <ele>105.548134</ele>
        <time>2012-01-15T09:25:41Z</time>
      </trkpt>
      <trkpt lat="46.52232" lon="0.3298">
        <ele>103.426186</ele>
        <time>2012-01-15T09:25:44Z</time>
      </trkpt>
      <trkpt lat="46.52225" lon="0.32991">
        <ele>102.215912</ele>
        <time>2012-01-15T09:25:46Z</time>
      </trkpt>
      <trkpt lat="46.52214" lon="0.33001">
        <ele>100.189529</ele>
        <time>2012-01-15T09:25:49Z</time>
      </trkpt>
      <trkpt lat="46.52211" lon="0.33003">
        <ele>99.687439</ele>
        <time>2012-01-15T09:25:50Z</time>
      </trkpt>
      <trkpt lat="46.52204" lon="0.33012">
        <ele>98.251617</ele>
        <time>2012-01-15T09:25:55Z</time>
      </trkpt>
      <trkpt lat="46.52198" lon="0.33016">
        <ele>97.213356</ele>
        <time>2012-01-15T09:25:57Z</time>
      </trkpt>
      <trkpt lat="46.5218" lon="0.33018">
        <ele>94.741249</ele>
        <time>2012-01-15T09:26:02Z</time>
      </trkpt>
      <trkpt lat="46.52163" lon="0.33025">
        <ele>94.165001</ele>
        <time>2012-01-15T09:26:05Z</time>
      </trkpt>
      <trkpt lat="46.52145" lon="0.33029">
        <ele>93.650002</ele>
        <time>2012-01-15T09:26:08Z</time>
      </trkpt>
      <trkpt lat="46.52125" lon="0.33054">
        <ele>91.951561</ele>
        <time>2012-01-15T09:26:12Z</time>
      </trkpt>
      <trkpt lat="46.52081" lon="0.33094">
        <ele>88.510902</ele>
        <time>2012-01-15T09:26:19Z</time>
      </trkpt>
      <trkpt lat="46.52068" lon="0.33104">
        <ele>87.73175</ele>
        <time>2012-01-15T09:26:21Z</time>
      </trkpt>
      <trkpt lat="46.52035" lon="0.3313">
        <ele>85.923752</ele>
        <time>2012-01-15T09:26:26Z</time>
      </trkpt>
      <trkpt lat="46.52015" lon="0.33146">
        <ele>84.537498</ele>
        <time>2012-01-15T09:26:29Z</time>
      </trkpt>
      <trkpt lat="46.51928" lon="0.3321">
        <ele>79.759827</ele>
        <time>2012-01-15T09:26:43Z</time>
      </trkpt>
      <trkpt lat="46.51905" lon="0.33226">
        <ele>79.346878</ele>
        <time>2012-01-15T09:26:48Z</time>
      </trkpt>
      <trkpt lat="46.519" lon="0.33204">
        <ele>79.680626</ele>
        <time>2012-01-15T09:26:56Z</time>
      </trkpt>
      <trkpt lat="46.51899" lon="0.33203">
        <ele>79.701874</ele>
        <time>2012-01-15T09:26:57Z</time>
      </trkpt>
      <trkpt lat="46.51899" lon="0.3321">
        <ele>79.588753</ele>
        <time>2012-01-15T09:27:01Z</time>
      </trkpt>
      <trkpt lat="46.519" lon="0.33243">
        <ele>79.090622</ele>
        <time>2012-01-15T09:27:08Z</time>
      </trkpt>
      <trkpt lat="46.51899" lon="0.33255">
        <ele>78.908752</ele>
        <time>2012-01-15T09:27:10Z</time>
      </trkpt>
      <trkpt lat="46.51897" lon="0.33284">
        <ele>78.463127</ele>
        <time>2012-01-15T09:27:14Z</time>
      </trkpt>
      <trkpt lat="46.51886" lon="0.33325">
        <ele>78</ele>
        <time>2012-01-15T09:27:20Z</time>
      </trkpt>
      <trkpt lat="46.51833" lon="0.33414">
        <ele>77.943222</ele>
        <time>2012-01-15T09:27:33Z</time>
      </trkpt>
      <trkpt lat="46.51768" lon="0.33433">
        <ele>78</ele>
        <time>2012-01-15T09:27:43Z</time>
      </trkpt>
      <trkpt lat="46.51739" lon="0.33452">
        <ele>77.962502</ele>
        <time>2012-01-15T09:27:48Z</time>
      </trkpt>
      <trkpt lat="46.51667" lon="0.33522">
        <ele>76.958405</ele>
        <time>2012-01-15T09:28:02Z</time>
      </trkpt>
      <trkpt lat="46.51619" lon="0.33571">
        <ele>76.064323</ele>
        <time>2012-01-15T09:28:12Z</time>
      </trkpt>
      <trkpt lat="46.51601" lon="0.33635">
        <ele>75.235626</ele>
        <time>2012-01-15T09:28:21Z</time>
      </trkpt>
      <trkpt lat="46.51604" lon="0.33652">
        <ele>75</ele>
        <time>2012-01-15T09:28:23Z</time>
      </trkpt>
      <trkpt lat="46.51618" lon="0.33715">
        <ele>75.000824</ele>
        <time>2012-01-15T09:28:31Z</time>
      </trkpt>
      <trkpt lat="46.51662" lon="0.33826">
        <ele>75.144997</ele>
        <time>2012-01-15T09:28:47Z</time>
      </trkpt>
      <trkpt lat="46.51705" lon="0.33961">
        <ele>75.221596</ele>
        <time>2012-01-15T09:29:05Z</time>
      </trkpt>
      <trkpt lat="46.51723" lon="0.34027">
        <ele>75.425003</ele>
        <time>2012-01-15T09:29:14Z</time>
      </trkpt>
      <trkpt lat="46.51727" lon="0.34089">
        <ele>75.489998</ele>
        <time>2012-01-15T09:29:22Z</time>
      </trkpt>
      <trkpt lat="46.5172" lon="0.34119">
        <ele>75.166603</ele>
        <time>2012-01-15T09:29:26Z</time>
      </trkpt>
      <trkpt lat="46.51688" lon="0.34202">
        <ele>83.197449</ele>
        <time>2012-01-15T09:29:39Z</time>
      </trkpt>
      <trkpt lat="46.51679" lon="0.34251">
        <ele>92.882439</ele>
        <time>2012-01-15T09:29:50Z</time>
      </trkpt>
      <trkpt lat="46.51679" lon="0.34265">
        <ele>93.855789</ele>
        <time>2012-01-15T09:29:54Z</time>
      </trkpt>
      <trkpt lat="46.51672" lon="0.34282">
        <ele>96.552811</ele>
        <time>2012-01-15T09:30:00Z</time>
      </trkpt>
      <trkpt lat="46.51672" lon="0.34315">
        <ele>96.240852</ele>
        <time>2012-01-15T09:30:11Z</time>
      </trkpt>
      <trkpt lat="46.51659" lon="0.3434">
        <ele>95.652161</ele>
        <time>2012-01-15T09:30:22Z</time>
      </trkpt>
      <trkpt lat="46.51639" lon="0.34359">
        <ele>96.693138</ele>
        <time>2012-01-15T09:30:35Z</time>
      </trkpt>
      <trkpt lat="46.51619" lon="0.3438">
        <ele>97.27256</ele>
        <time>2012-01-15T09:30:47Z</time>
      </trkpt>
      <trkpt lat="46.51592" lon="0.3441">
        <ele>98.058403</ele>
        <time>2012-01-15T09:31:01Z</time>
      </trkpt>
      <trkpt lat="46.51559" lon="0.34452">
        <ele>99.548897</ele>
        <time>2012-01-15T09:31:16Z</time>
      </trkpt>
      <trkpt lat="46.51515" lon="0.34507">
        <ele>99.889572</ele>
        <time>2012-01-15T09:31:34Z</time>
      </trkpt>
      <trkpt lat="46.51513" lon="0.34509">
        <ele>100.091766</ele>
        <time>2012-01-15T09:31:35Z</time>
      </trkpt>
      <trkpt lat="46.51506" lon="0.34524">
        <ele>100.553108</ele>
        <time>2012-01-15T09:31:41Z</time>
      </trkpt>
      <trkpt lat="46.51494" lon="0.34548">
        <ele>101.558304</ele>
        <time>2012-01-15T09:31:48Z</time>
      </trkpt>
      <trkpt lat="46.51473" lon="0.34614">
        <ele>104.803947</ele>
        <time>2012-01-15T09:31:59Z</time>
      </trkpt>
      <trkpt lat="46.51454" lon="0.3468">
        <ele>106.908821</ele>
        <time>2012-01-15T09:32:12Z</time>
      </trkpt>
      <trkpt lat="46.51435" lon="0.34762">
        <ele>106.991249</ele>
        <time>2012-01-15T09:32:28Z</time>
      </trkpt>
      <trkpt lat="46.51415" lon="0.3483">
        <ele>108.979309</ele>
        <time>2012-01-15T09:32:43Z</time>
      </trkpt>
      <trkpt lat="46.51401" lon="0.3485">
        <ele>110.16153</ele>
        <time>2012-01-15T09:32:48Z</time>
      </trkpt>
      <trkpt lat="46.51377" lon="0.34874">
        <ele>111.285095</ele>
        <time>2012-01-15T09:32:56Z</time>
      </trkpt>
      <trkpt lat="46.51351" lon="0.34902">
        <ele>110.049202</ele>
        <time>2012-01-15T09:33:10Z</time>
      </trkpt>
      <trkpt lat="46.5135" lon="0.34903">
        <ele>110.176804</ele>
        <time>2012-01-15T09:33:11Z</time>
      </trkpt>
      <trkpt lat="46.51343" lon="0.34906">
        <ele>111.063622</ele>
        <time>2012-01-15T09:33:16Z</time>
      </trkpt>
      <trkpt lat="46.5132" lon="0.34916">
        <ele>113.459999</ele>
        <time>2012-01-15T09:33:27Z</time>
      </trkpt>
      <trkpt lat="46.51293" lon="0.34924">
        <ele>114.601013</ele>
        <time>2012-01-15T09:33:36Z</time>
      </trkpt>
      <trkpt lat="46.51288" lon="0.34914">
        <ele>114.93454</ele>
        <time>2012-01-15T09:33:42Z</time>
      </trkpt>
      <trkpt lat="46.51278" lon="0.34898">
        <ele>115.836372</ele>
        <time>2012-01-15T09:33:51Z</time>
      </trkpt>
      <trkpt lat="46.51256" lon="0.34876">
        <ele>119.019402</ele>
        <time>2012-01-15T09:34:06Z</time>
      </trkpt>
      <trkpt lat="46.51252" lon="0.34867">
        <ele>119.953972</ele>
        <time>2012-01-15T09:34:10Z</time>
      </trkpt>
      <trkpt lat="46.5124" lon="0.34847">
        <ele>121.914406</ele>
        <time>2012-01-15T09:34:20Z</time>
      </trkpt>
      <trkpt lat="46.51201" lon="0.34849">
        <ele>122.910851</ele>
        <time>2012-01-15T09:34:34Z</time>
      </trkpt>
      <trkpt lat="46.51159" lon="0.34878">
        <ele>122.260002</ele>
        <time>2012-01-15T09:34:48Z</time>
      </trkpt>
      <trkpt lat="46.51145" lon="0.34881">
        <ele>122.130623</ele>
        <time>2012-01-15T09:34:52Z</time>
      </trkpt>
      <trkpt lat="46.51136" lon="0.34933">
        <ele>119.336494</ele>
        <time>2012-01-15T09:35:00Z</time>
      </trkpt>
      <trkpt lat="46.51136" lon="0.34969">
        <ele>117.143547</ele>
        <time>2012-01-15T09:35:04Z</time>
      </trkpt>
      <trkpt lat="46.51129" lon="0.35">
        <ele>118.018753</ele>
        <time>2012-01-15T09:35:09Z</time>
      </trkpt>
      <trkpt lat="46.51125" lon="0.35027">
        <ele>118.943748</ele>
        <time>2012-01-15T09:35:15Z</time>
      </trkpt>
      <trkpt lat="46.51114" lon="0.35058">
        <ele>120.451874</ele>
        <time>2012-01-15T09:35:25Z</time>
      </trkpt>
      <trkpt lat="46.5111" lon="0.35065">
        <ele>120.835625</ele>
        <time>2012-01-15T09:35:27Z</time>
      </trkpt>
      <trkpt lat="46.51113" lon="0.3508">
        <ele>121.484375</ele>
        <time>2012-01-15T09:35:31Z</time>
      </trkpt>
      <trkpt lat="46.51161" lon="0.3514">
        <ele>122.682503</ele>
        <time>2012-01-15T09:35:47Z</time>
      </trkpt>
      <trkpt lat="46.51169" lon="0.35161">
        <ele>123.184998</ele>
        <time>2012-01-15T09:35:51Z</time>
      </trkpt>
      <trkpt lat="46.51174" lon="0.3519">
        <ele>124.047012</ele>
        <time>2012-01-15T09:35:56Z</time>
      </trkpt>
      <trkpt lat="46.51197" lon="0.35263">
        <ele>126.383698</ele>
        <time>2012-01-15T09:36:10Z</time>
      </trkpt>
      <trkpt lat="46.51198" lon="0.35282">
        <ele>127.188965</ele>
        <time>2012-01-15T09:36:14Z</time>
      </trkpt>
      <trkpt lat="46.51197" lon="0.35352">
        <ele>129.542496</ele>
        <time>2012-01-15T09:36:29Z</time>
      </trkpt>
      <trkpt lat="46.5119" lon="0.35368">
        <ele>130.151947</ele>
        <time>2012-01-15T09:36:33Z</time>
      </trkpt>
      <trkpt lat="46.51161" lon="0.35397">
        <ele>131.083755</ele>
        <time>2012-01-15T09:36:42Z</time>
      </trkpt>
      <trkpt lat="46.51166" lon="0.35427">
        <ele>132.005005</ele>
        <time>2012-01-15T09:36:49Z</time>
      </trkpt>
      <trkpt lat="46.51168" lon="0.35437">
        <ele>132.163757</ele>
        <time>2012-01-15T09:36:51Z</time>
      </trkpt>
      <trkpt lat="46.51188" lon="0.35512">
        <ele>133.331879</ele>
        <time>2012-01-15T09:37:06Z</time>
      </trkpt>
      <trkpt lat="46.51192" lon="0.35533">
        <ele>133.595001</ele>
        <time>2012-01-15T09:37:10Z</time>
      </trkpt>
      <trkpt lat="46.51203" lon="0.35543">
        <ele>133.526871</ele>
        <time>2012-01-15T09:37:13Z</time>
      </trkpt>
      <trkpt lat="46.51213" lon="0.35563">
        <ele>133.677216</ele>
        <time>2012-01-15T09:37:17Z</time>
      </trkpt>
      <trkpt lat="46.5122" lon="0.35587">
        <ele>134.160019</ele>
        <time>2012-01-15T09:37:21Z</time>
      </trkpt>
      <trkpt lat="46.51224" lon="0.35598">
        <ele>134.425278</ele>
        <time>2012-01-15T09:37:23Z</time>
      </trkpt>
      <trkpt lat="46.51253" lon="0.35606">
        <ele>134.225006</ele>
        <time>2012-01-15T09:37:30Z</time>
      </trkpt>
      <trkpt lat="46.51296" lon="0.3558">
        <ele>132.858749</ele>
        <time>2012-01-15T09:37:40Z</time>
      </trkpt>
      <trkpt lat="46.51327" lon="0.3558">
        <ele>132.925674</ele>
        <time>2012-01-15T09:37:48Z</time>
      </trkpt>
      <trkpt lat="46.51343" lon="0.35598">
        <ele>133.562607</ele>
        <time>2012-01-15T09:37:56Z</time>
      </trkpt>
      <trkpt lat="46.51348" lon="0.35626">
        <ele>134.164993</ele>
        <time>2012-01-15T09:38:00Z</time>
      </trkpt>
      <trkpt lat="46.51363" lon="0.35745">
        <ele>135</ele>
        <time>2012-01-15T09:38:18Z</time>
      </trkpt>
      <trkpt lat="46.51364" lon="0.35759">
        <ele>134.955917</ele>
        <time>2012-01-15T09:38:20Z</time>
      </trkpt>
      <trkpt lat="46.51358" lon="0.35792">
        <ele>134.740356</ele>
        <time>2012-01-15T09:38:25Z</time>
      </trkpt>
      <trkpt lat="46.5136" lon="0.35854">
        <ele>133.994995</ele>
        <time>2012-01-15T09:38:36Z</time>
      </trkpt>
      <trkpt lat="46.51361" lon="0.35867">
        <ele>133.803757</ele>
        <time>2012-01-15T09:38:38Z</time>
      </trkpt>
      <trkpt lat="46.51379" lon="0.35987">
        <ele>128.9599</ele>
        <time>2012-01-15T09:38:52Z</time>
      </trkpt>
      <trkpt lat="46.51384" lon="0.36024">
        <ele>127.53125</ele>
        <time>2012-01-15T09:38:56Z</time>
      </trkpt>
      <trkpt lat="46.51391" lon="0.36075">
        <ele>125.664864</ele>
        <time>2012-01-15T09:39:01Z</time>
      </trkpt>
      <trkpt lat="46.51402" lon="0.3612">
        <ele>124.549309</ele>
        <time>2012-01-15T09:39:05Z</time>
      </trkpt>
      <trkpt lat="46.51407" lon="0.36146">
        <ele>123.665482</ele>
        <time>2012-01-15T09:39:07Z</time>
      </trkpt>
      <trkpt lat="46.51432" lon="0.36267">
        <ele>119.055687</ele>
        <time>2012-01-15T09:39:18Z</time>
      </trkpt>
      <trkpt lat="46.51434" lon="0.36278">
        <ele>118.840065</ele>
        <time>2012-01-15T09:39:19Z</time>
      </trkpt>
      <trkpt lat="46.51438" lon="0.36301">
        <ele>118.270714</ele>
        <time>2012-01-15T09:39:21Z</time>
      </trkpt>
      <trkpt lat="46.51442" lon="0.36355">
        <ele>116.741859</ele>
        <time>2012-01-15T09:39:27Z</time>
      </trkpt>
      <trkpt lat="46.51441" lon="0.3639">
        <ele>115.873466</ele>
        <time>2012-01-15T09:39:32Z</time>
      </trkpt>
      <trkpt lat="46.51439" lon="0.36404">
        <ele>115.3078</ele>
        <time>2012-01-15T09:39:34Z</time>
      </trkpt>
      <trkpt lat="46.5143" lon="0.36438">
        <ele>112.69017</ele>
        <time>2012-01-15T09:39:39Z</time>
      </trkpt>
      <trkpt lat="46.51418" lon="0.36483">
        <ele>111.841972</ele>
        <time>2012-01-15T09:39:45Z</time>
      </trkpt>
      <trkpt lat="46.51399" lon="0.36544">
        <ele>108.220322</ele>
        <time>2012-01-15T09:39:53Z</time>
      </trkpt>
      <trkpt lat="46.51394" lon="0.3656">
        <ele>106.906075</ele>
        <time>2012-01-15T09:39:55Z</time>
      </trkpt>
      <trkpt lat="46.5138" lon="0.36604">
        <ele>104.76519</ele>
        <time>2012-01-15T09:40:00Z</time>
      </trkpt>
      <trkpt lat="46.51379" lon="0.36631">
        <ele>104.319565</ele>
        <time>2012-01-15T09:40:03Z</time>
      </trkpt>
      <trkpt lat="46.51386" lon="0.36644">
        <ele>103.64106</ele>
        <time>2012-01-15T09:40:05Z</time>
      </trkpt>
      <trkpt lat="46.51393" lon="0.36655">
        <ele>103.259377</ele>
        <time>2012-01-15T09:40:07Z</time>
      </trkpt>
      <trkpt lat="46.51411" lon="0.36681">
        <ele>104.010086</ele>
        <time>2012-01-15T09:40:12Z</time>
      </trkpt>
      <trkpt lat="46.51418" lon="0.3669">
        <ele>103.858849</ele>
        <time>2012-01-15T09:40:14Z</time>
      </trkpt>
      <trkpt lat="46.51465" lon="0.36764">
        <ele>102.494675</ele>
        <time>2012-01-15T09:40:28Z</time>
      </trkpt>
      <trkpt lat="46.51469" lon="0.3677">
        <ele>102.050499</ele>
        <time>2012-01-15T09:40:29Z</time>
      </trkpt>
      <trkpt lat="46.51481" lon="0.36796">
        <ele>100.139191</ele>
        <time>2012-01-15T09:40:33Z</time>
      </trkpt>
      <trkpt lat="46.5149" lon="0.36848">
        <ele>101.031052</ele>
        <time>2012-01-15T09:40:40Z</time>
      </trkpt>
      <trkpt lat="46.5148" lon="0.36875">
        <ele>100.689323</ele>
        <time>2012-01-15T09:40:46Z</time>
      </trkpt>
      <trkpt lat="46.5148" lon="0.36879">
        <ele>100.843399</ele>
        <time>2012-01-15T09:40:47Z</time>
      </trkpt>
      <trkpt lat="46.51479" lon="0.36907">
        <ele>101.112373</ele>
        <time>2012-01-15T09:40:52Z</time>
      </trkpt>
      <trkpt lat="46.51479" lon="0.36948">
        <ele>100.728752</ele>
        <time>2012-01-15T09:40:58Z</time>
      </trkpt>
      <trkpt lat="46.51478" lon="0.36975">
        <ele>100.511871</ele>
        <time>2012-01-15T09:41:02Z</time>
      </trkpt>
      <trkpt lat="46.51479" lon="0.36989">
        <ele>100.064842</ele>
        <time>2012-01-15T09:41:04Z</time>
      </trkpt>
      <trkpt lat="46.51485" lon="0.37032">
        <ele>98.406715</ele>
        <time>2012-01-15T09:41:11Z</time>
      </trkpt>
      <trkpt lat="46.51488" lon="0.37044">
        <ele>97.867813</ele>
        <time>2012-01-15T09:41:13Z</time>
      </trkpt>
      <trkpt lat="46.51497" lon="0.3707">
        <ele>98.780998</ele>
        <time>2012-01-15T09:41:17Z</time>
      </trkpt>
      <trkpt lat="46.51506" lon="0.37093">
        <ele>98.822578</ele>
        <time>2012-01-15T09:41:21Z</time>
      </trkpt>
      <trkpt lat="46.51517" lon="0.37119">
        <ele>98.265999</ele>
        <time>2012-01-15T09:41:25Z</time>
      </trkpt>
      <trkpt lat="46.5152" lon="0.37127">
        <ele>98.127251</ele>
        <time>2012-01-15T09:41:26Z</time>
      </trkpt>
      <trkpt lat="46.51526" lon="0.37143">
        <ele>97.677551</ele>
        <time>2012-01-15T09:41:28Z</time>
      </trkpt>
      <trkpt lat="46.51528" lon="0.37151">
        <ele>97.450813</ele>
        <time>2012-01-15T09:41:29Z</time>
      </trkpt>
      <trkpt lat="46.51532" lon="0.3717">
        <ele>97.216003</ele>
        <time>2012-01-15T09:41:31Z</time>
      </trkpt>
      <trkpt lat="46.51535" lon="0.3723">
        <ele>97.79303</ele>
        <time>2012-01-15T09:41:38Z</time>
      </trkpt>
      <trkpt lat="46.51547" lon="0.37282">
        <ele>98.832291</ele>
        <time>2012-01-15T09:41:45Z</time>
      </trkpt>
      <trkpt lat="46.5157" lon="0.3734">
        <ele>99.127045</ele>
        <time>2012-01-15T09:41:56Z</time>
      </trkpt>
      <trkpt lat="46.51578" lon="0.37355">
        <ele>98.761948</ele>
        <time>2012-01-15T09:41:59Z</time>
      </trkpt>
      <trkpt lat="46.51613" lon="0.37403">
        <ele>100.880325</ele>
        <time>2012-01-15T09:42:11Z</time>
      </trkpt>
      <trkpt lat="46.51641" lon="0.3743">
        <ele>99.95826</ele>
        <time>2012-01-15T09:42:20Z</time>
      </trkpt>
      <trkpt lat="46.51666" lon="0.37451">
        <ele>99.858749</ele>
        <time>2012-01-15T09:42:29Z</time>
      </trkpt>
      <trkpt lat="46.51707" lon="0.37479">
        <ele>100.423279</ele>
        <time>2012-01-15T09:42:39Z</time>
      </trkpt>
      <trkpt lat="46.51757" lon="0.375">
        <ele>99.092789</ele>
        <time>2012-01-15T09:42:50Z</time>
      </trkpt>
      <trkpt lat="46.51784" lon="0.37506">
        <ele>98.788124</ele>
        <time>2012-01-15T09:42:55Z</time>
      </trkpt>
      <trkpt lat="46.51802" lon="0.3751">
        <ele>98.836876</ele>
        <time>2012-01-15T09:42:58Z</time>
      </trkpt>
      <trkpt lat="46.51822" lon="0.37519">
        <ele>99.628036</ele>
        <time>2012-01-15T09:43:02Z</time>
      </trkpt>
      <trkpt lat="46.51841" lon="0.37535">
        <ele>100.890503</ele>
        <time>2012-01-15T09:43:07Z</time>
      </trkpt>
      <trkpt lat="46.5185" lon="0.37543">
        <ele>101.300674</ele>
        <time>2012-01-15T09:43:09Z</time>
      </trkpt>
      <trkpt lat="46.51858" lon="0.37555">
        <ele>101.65358</ele>
        <time>2012-01-15T09:43:11Z</time>
      </trkpt>
      <trkpt lat="46.51863" lon="0.37567">
        <ele>101.368607</ele>
        <time>2012-01-15T09:43:13Z</time>
      </trkpt>
      <trkpt lat="46.51868" lon="0.37584">
        <ele>101.173553</ele>
        <time>2012-01-15T09:43:16Z</time>
      </trkpt>
      <trkpt lat="46.51874" lon="0.37619">
        <ele>101.190865</ele>
        <time>2012-01-15T09:43:22Z</time>
      </trkpt>
      <trkpt lat="46.51882" lon="0.37652">
        <ele>99.264717</ele>
        <time>2012-01-15T09:43:28Z</time>
      </trkpt>
      <trkpt lat="46.51882" lon="0.37675">
        <ele>98.852249</ele>
        <time>2012-01-15T09:43:32Z</time>
      </trkpt>
      <trkpt lat="46.5188" lon="0.37692">
        <ele>98.6577</ele>
        <time>2012-01-15T09:43:35Z</time>
      </trkpt>
      <trkpt lat="46.51876" lon="0.37763">
        <ele>97.342499</ele>
        <time>2012-01-15T09:43:45Z</time>
      </trkpt>
      <trkpt lat="46.5187" lon="0.37792">
        <ele>96.881248</ele>
        <time>2012-01-15T09:43:49Z</time>
      </trkpt>
      <trkpt lat="46.51859" lon="0.37823">
        <ele>96.842499</ele>
        <time>2012-01-15T09:43:54Z</time>
      </trkpt>
      <trkpt lat="46.51853" lon="0.37833">
        <ele>97.20594</ele>
        <time>2012-01-15T09:43:56Z</time>
      </trkpt>
      <trkpt lat="46.51844" lon="0.37848">
        <ele>97.51281</ele>
        <time>2012-01-15T09:43:59Z</time>
      </trkpt>
      <trkpt lat="46.51837" lon="0.37879">
        <ele>97.033806</ele>
        <time>2012-01-15T09:44:04Z</time>
      </trkpt>
      <trkpt lat="46.51832" lon="0.37939">
        <ele>96.995186</ele>
        <time>2012-01-15T09:44:14Z</time>
      </trkpt>
      <trkpt lat="46.51829" lon="0.37964">
        <ele>97.297676</ele>
        <time>2012-01-15T09:44:18Z</time>
      </trkpt>
      <trkpt lat="46.51818" lon="0.37989">
        <ele>97.94175</ele>
        <time>2012-01-15T09:44:22Z</time>
      </trkpt>
      <trkpt lat="46.51793" lon="0.38019">
        <ele>99.582626</ele>
        <time>2012-01-15T09:44:28Z</time>
      </trkpt>
      <trkpt lat="46.51745" lon="0.38058">
        <ele>101.599373</ele>
        <time>2012-01-15T09:44:41Z</time>
      </trkpt>
      <trkpt lat="46.51701" lon="0.38085">
        <ele>102.453751</ele>
        <time>2012-01-15T09:44:53Z</time>
      </trkpt>
      <trkpt lat="46.51663" lon="0.38116">
        <ele>102.135338</ele>
        <time>2012-01-15T09:45:04Z</time>
      </trkpt>
      <trkpt lat="46.51658" lon="0.38118">
        <ele>102.096504</ele>
        <time>2012-01-15T09:45:05Z</time>
      </trkpt>
      <trkpt lat="46.51655" lon="0.38157">
        <ele>100.209373</ele>
        <time>2012-01-15T09:45:12Z</time>
      </trkpt>
      <trkpt lat="46.51665" lon="0.38196">
        <ele>97.146873</ele>
        <time>2012-01-15T09:45:18Z</time>
      </trkpt>
      <trkpt lat="46.51669" lon="0.3822">
        <ele>95.808693</ele>
        <time>2012-01-15T09:45:21Z</time>
      </trkpt>
      <trkpt lat="46.51672" lon="0.38246">
        <ele>95.289108</ele>
        <time>2012-01-15T09:45:24Z</time>
      </trkpt>
      <trkpt lat="46.51691" lon="0.38274">
        <ele>95.025002</ele>
        <time>2012-01-15T09:45:30Z</time>
      </trkpt>
      <trkpt lat="46.51696" lon="0.38276">
        <ele>95.210075</ele>
        <time>2012-01-15T09:45:31Z</time>
      </trkpt>
      <trkpt lat="46.51724" lon="0.383">
        <ele>99.578667</ele>
        <time>2012-01-15T09:45:41Z</time>
      </trkpt>
      <trkpt lat="46.5173" lon="0.38308">
        <ele>100.784866</ele>
        <time>2012-01-15T09:45:44Z</time>
      </trkpt>
      <trkpt lat="46.51733" lon="0.38316">
        <ele>102.118446</ele>
        <time>2012-01-15T09:45:48Z</time>
      </trkpt>
      <trkpt lat="46.51738" lon="0.38328">
        <ele>103.385292</ele>
        <time>2012-01-15T09:45:54Z</time>
      </trkpt>
      <trkpt lat="46.51747" lon="0.38336">
        <ele>103.070045</ele>
        <time>2012-01-15T09:46:01Z</time>
      </trkpt>
      <trkpt lat="46.51754" lon="0.38339">
        <ele>102.520622</ele>
        <time>2012-01-15T09:46:05Z</time>
      </trkpt>
      <trkpt lat="46.51766" lon="0.38346">
        <ele>101.862503</ele>
        <time>2012-01-15T09:46:12Z</time>
      </trkpt>
      <trkpt lat="46.51788" lon="0.38358">
        <ele>102.181541</ele>
        <time>2012-01-15T09:46:24Z</time>
      </trkpt>
      <trkpt lat="46.51811" lon="0.38372">
        <ele>103.626328</ele>
        <time>2012-01-15T09:46:37Z</time>
      </trkpt>
      <trkpt lat="46.51815" lon="0.38376">
        <ele>104.105148</ele>
        <time>2012-01-15T09:46:40Z</time>
      </trkpt>
      <trkpt lat="46.51822" lon="0.38382">
        <ele>104.807976</ele>
        <time>2012-01-15T09:46:46Z</time>
      </trkpt>
      <trkpt lat="46.51833" lon="0.38404">
        <ele>108.537125</ele>
        <time>2012-01-15T09:46:56Z</time>
      </trkpt>
      <trkpt lat="46.5184" lon="0.38417">
        <ele>109.764053</ele>
        <time>2012-01-15T09:47:00Z</time>
      </trkpt>
      <trkpt lat="46.51864" lon="0.38456">
        <ele>111.949463</ele>
        <time>2012-01-15T09:47:12Z</time>
      </trkpt>
      <trkpt lat="46.51876" lon="0.38505">
        <ele>115.519577</ele>
        <time>2012-01-15T09:47:26Z</time>
      </trkpt>
      <trkpt lat="46.51897" lon="0.38556">
        <ele>118.895782</ele>
        <time>2012-01-15T09:47:43Z</time>
      </trkpt>
      <trkpt lat="46.51909" lon="0.38592">
        <ele>119.963249</ele>
        <time>2012-01-15T09:47:54Z</time>
      </trkpt>
      <trkpt lat="46.51927" lon="0.38632">
        <ele>122.235207</ele>
        <time>2012-01-15T09:48:08Z</time>
      </trkpt>
      <trkpt lat="46.51934" lon="0.38645">
        <ele>123.149666</ele>
        <time>2012-01-15T09:48:12Z</time>
      </trkpt>
      <trkpt lat="46.51919" lon="0.38677">
        <ele>123.847343</ele>
        <time>2012-01-15T09:48:21Z</time>
      </trkpt>
      <trkpt lat="46.51887" lon="0.3872">
        <ele>125.840401</ele>
        <time>2012-01-15T09:48:34Z</time>
      </trkpt>
      <trkpt lat="46.51857" lon="0.38788">
        <ele>126</ele>
        <time>2012-01-15T09:48:48Z</time>
      </trkpt>
      <trkpt lat="46.51828" lon="0.38897">
        <ele>122.777496</ele>
        <time>2012-01-15T09:49:04Z</time>
      </trkpt>
      <trkpt lat="46.51804" lon="0.38968">
        <ele>119.935623</ele>
        <time>2012-01-15T09:49:14Z</time>
      </trkpt>
      <trkpt lat="46.51792" lon="0.38997">
        <ele>118.6175</ele>
        <time>2012-01-15T09:49:18Z</time>
      </trkpt>
      <trkpt lat="46.51785" lon="0.39011">
        <ele>118.028114</ele>
        <time>2012-01-15T09:49:20Z</time>
      </trkpt>
      <trkpt lat="46.5174" lon="0.39087">
        <ele>116.661194</ele>
        <time>2012-01-15T09:49:34Z</time>
      </trkpt>
      <trkpt lat="46.51726" lon="0.39107">
        <ele>116.408714</ele>
        <time>2012-01-15T09:49:39Z</time>
      </trkpt>
      <trkpt lat="46.51711" lon="0.39133">
        <ele>115.516136</ele>
        <time>2012-01-15T09:49:45Z</time>
      </trkpt>
      <trkpt lat="46.51686" lon="0.39186">
        <ele>112.747345</ele>
        <time>2012-01-15T09:49:53Z</time>
      </trkpt>
      <trkpt lat="46.51678" lon="0.39202">
        <ele>111.29705</ele>
        <time>2012-01-15T09:49:55Z</time>
      </trkpt>
      <trkpt lat="46.51669" lon="0.3922">
        <ele>109.729408</ele>
        <time>2012-01-15T09:49:57Z</time>
      </trkpt>
      <trkpt lat="46.51648" lon="0.39261">
        <ele>106.348396</ele>
        <time>2012-01-15T09:50:02Z</time>
      </trkpt>
      <trkpt lat="46.51636" lon="0.39292">
        <ele>105.117722</ele>
        <time>2012-01-15T09:50:06Z</time>
      </trkpt>
      <trkpt lat="46.51645" lon="0.39314">
        <ele>104.83831</ele>
        <time>2012-01-15T09:50:11Z</time>
      </trkpt>
      <trkpt lat="46.51667" lon="0.3932">
        <ele>105.0924</ele>
        <time>2012-01-15T09:50:16Z</time>
      </trkpt>
      <trkpt lat="46.51684" lon="0.39321">
        <ele>105.249146</ele>
        <time>2012-01-15T09:50:20Z</time>
      </trkpt>
      <trkpt lat="46.517" lon="0.39319">
        <ele>105.1035</ele>
        <time>2012-01-15T09:50:24Z</time>
      </trkpt>
      <trkpt lat="46.51766" lon="0.39318">
        <ele>106.806404</ele>
        <time>2012-01-15T09:50:41Z</time>
      </trkpt>
      <trkpt lat="46.51803" lon="0.39291">
        <ele>109.239212</ele>
        <time>2012-01-15T09:50:52Z</time>
      </trkpt>
      <trkpt lat="46.51829" lon="0.39253">
        <ele>110.791702</ele>
        <time>2012-01-15T09:51:04Z</time>
      </trkpt>
      <trkpt lat="46.51857" lon="0.3924">
        <ele>111.838448</ele>
        <time>2012-01-15T09:51:14Z</time>
      </trkpt>
      <trkpt lat="46.51888" lon="0.39237">
        <ele>113.03125</ele>
        <time>2012-01-15T09:51:24Z</time>
      </trkpt>
      <trkpt lat="46.51922" lon="0.39238">
        <ele>114.628754</ele>
        <time>2012-01-15T09:51:35Z</time>
      </trkpt>
      <trkpt lat="46.51978" lon="0.3924">
        <ele>117.254997</ele>
        <time>2012-01-15T09:51:52Z</time>
      </trkpt>
      <trkpt lat="46.52032" lon="0.39233">
        <ele>120.610001</ele>
        <time>2012-01-15T09:52:09Z</time>
      </trkpt>
      <trkpt lat="46.52082" lon="0.39226">
        <ele>122.495071</ele>
        <time>2012-01-15T09:52:24Z</time>
      </trkpt>
      <trkpt lat="46.52143" lon="0.39215">
        <ele>124.361862</ele>
        <time>2012-01-15T09:52:42Z</time>
      </trkpt>
      <trkpt lat="46.522" lon="0.39195">
        <ele>126.212502</ele>
        <time>2012-01-15T09:52:59Z</time>
      </trkpt>
      <trkpt lat="46.52267" lon="0.39169">
        <ele>126.936127</ele>
        <time>2012-01-15T09:53:17Z</time>
      </trkpt>
      <trkpt lat="46.52344" lon="0.39137">
        <ele>127.84304</ele>
        <time>2012-01-15T09:53:36Z</time>
      </trkpt>
      <trkpt lat="46.52388" lon="0.3911">
        <ele>129.529694</ele>
        <time>2012-01-15T09:53:48Z</time>
      </trkpt>
      <trkpt lat="46.52433" lon="0.39104">
        <ele>130.178757</ele>
        <time>2012-01-15T09:53:59Z</time>
      </trkpt>
      <trkpt lat="46.52494" lon="0.39094">
        <ele>132.220001</ele>
        <time>2012-01-15T09:54:15Z</time>
      </trkpt>
      <trkpt lat="46.5255" lon="0.39076">
        <ele>134.101257</ele>
        <time>2012-01-15T09:54:31Z</time>
      </trkpt>
      <trkpt lat="46.52597" lon="0.3906">
        <ele>135.381882</ele>
        <time>2012-01-15T09:54:45Z</time>
      </trkpt>
      <trkpt lat="46.52651" lon="0.39044">
        <ele>136.125</ele>
        <time>2012-01-15T09:55:00Z</time>
      </trkpt>
      <trkpt lat="46.52679" lon="0.39041">
        <ele>136.75</ele>
        <time>2012-01-15T09:55:09Z</time>
      </trkpt>
      <trkpt lat="46.52683" lon="0.39041">
        <ele>136.830002</ele>
        <time>2012-01-15T09:55:25Z</time>
      </trkpt>
      <trkpt lat="46.52687" lon="0.39042">
        <ele>136.934998</ele>
        <time>2012-01-15T09:56:12Z</time>
      </trkpt>
      <trkpt lat="46.52727" lon="0.39028">
        <ele>137</ele>
        <time>2012-01-15T09:56:25Z</time>
      </trkpt>
      <trkpt lat="46.52774" lon="0.39019">
        <ele>136.137619</ele>
        <time>2012-01-15T09:56:38Z</time>
      </trkpt>
      <trkpt lat="46.52824" lon="0.39005">
        <ele>135.014999</ele>
        <time>2012-01-15T09:56:49Z</time>
      </trkpt>
      <trkpt lat="46.52915" lon="0.38982">
        <ele>131.505615</ele>
        <time>2012-01-15T09:57:05Z</time>
      </trkpt>
      <trkpt lat="46.52972" lon="0.38969">
        <ele>130.060623</ele>
        <time>2012-01-15T09:57:16Z</time>
      </trkpt>
      <trkpt lat="46.52981" lon="0.38966">
        <ele>129.803757</ele>
        <time>2012-01-15T09:57:18Z</time>
      </trkpt>
      <trkpt lat="46.52996" lon="0.38958">
        <ele>129.363129</ele>
        <time>2012-01-15T09:57:22Z</time>
      </trkpt>
      <trkpt lat="46.53033" lon="0.38937">
        <ele>128.883743</ele>
        <time>2012-01-15T09:57:33Z</time>
      </trkpt>
      <trkpt lat="46.53077" lon="0.38906">
        <ele>129.095001</ele>
        <time>2012-01-15T09:57:46Z</time>
      </trkpt>
      <trkpt lat="46.53115" lon="0.38892">
        <ele>129.740005</ele>
        <time>2012-01-15T09:57:57Z</time>
      </trkpt>
      <trkpt lat="46.5317" lon="0.38874">
        <ele>130.710007</ele>
        <time>2012-01-15T09:58:12Z</time>
      </trkpt>
      <trkpt lat="46.53177" lon="0.38871">
        <ele>130.786255</ele>
        <time>2012-01-15T09:58:14Z</time>
      </trkpt>
      <trkpt lat="46.5322" lon="0.38862">
        <ele>130.823868</ele>
        <time>2012-01-15T09:58:25Z</time>
      </trkpt>
      <trkpt lat="46.53267" lon="0.38849">
        <ele>130.066376</ele>
        <time>2012-01-15T09:58:38Z</time>
      </trkpt>
      <trkpt lat="46.53281" lon="0.38842">
        <ele>129.91362</ele>
        <time>2012-01-15T09:58:42Z</time>
      </trkpt>
      <trkpt lat="46.53334" lon="0.38821">
        <ele>128.513123</ele>
        <time>2012-01-15T09:58:54Z</time>
      </trkpt>
      <trkpt lat="46.53392" lon="0.3881">
        <ele>125.105621</ele>
        <time>2012-01-15T09:59:07Z</time>
      </trkpt>
      <trkpt lat="46.53455" lon="0.38799">
        <ele>120.829575</ele>
        <time>2012-01-15T09:59:19Z</time>
      </trkpt>
      <trkpt lat="46.53461" lon="0.38798">
        <ele>120.591248</ele>
        <time>2012-01-15T09:59:20Z</time>
      </trkpt>
      <trkpt lat="46.5348" lon="0.38793">
        <ele>119.756874</ele>
        <time>2012-01-15T09:59:23Z</time>
      </trkpt>
      <trkpt lat="46.53495" lon="0.3879">
        <ele>119.141251</ele>
        <time>2012-01-15T09:59:25Z</time>
      </trkpt>
      <trkpt lat="46.53542" lon="0.38781">
        <ele>117.185623</ele>
        <time>2012-01-15T09:59:31Z</time>
      </trkpt>
      <trkpt lat="46.5363" lon="0.38729">
        <ele>115.000786</ele>
        <time>2012-01-15T09:59:44Z</time>
      </trkpt>
      <trkpt lat="46.5365" lon="0.38717">
        <ele>115.079102</ele>
        <time>2012-01-15T09:59:47Z</time>
      </trkpt>
      <trkpt lat="46.53728" lon="0.38675">
        <ele>114.768753</ele>
        <time>2012-01-15T10:00:00Z</time>
      </trkpt>
      <trkpt lat="46.53767" lon="0.38663">
        <ele>114.285187</ele>
        <time>2012-01-15T10:00:07Z</time>
      </trkpt>
      <trkpt lat="46.53795" lon="0.38646">
        <ele>113.854378</ele>
        <time>2012-01-15T10:00:13Z</time>
      </trkpt>
      <trkpt lat="46.5381" lon="0.3863">
        <ele>113.650627</ele>
        <time>2012-01-15T10:00:17Z</time>
      </trkpt>
      <trkpt lat="46.5386" lon="0.38587">
        <ele>114.419998</ele>
        <time>2012-01-15T10:00:30Z</time>
      </trkpt>
      <trkpt lat="46.53865" lon="0.38582">
        <ele>114.952499</ele>
        <time>2012-01-15T10:00:32Z</time>
      </trkpt>
      <trkpt lat="46.539" lon="0.38555">
        <ele>118.033813</ele>
        <time>2012-01-15T10:00:45Z</time>
      </trkpt>
      <trkpt lat="46.53939" lon="0.38523">
        <ele>119.916527</ele>
        <time>2012-01-15T10:01:00Z</time>
      </trkpt>
      <trkpt lat="46.53974" lon="0.38493">
        <ele>123.047501</ele>
        <time>2012-01-15T10:01:16Z</time>
      </trkpt>
      <trkpt lat="46.54002" lon="0.38469">
        <ele>125.596329</ele>
        <time>2012-01-15T10:01:28Z</time>
      </trkpt>
      <trkpt lat="46.54049" lon="0.38434">
        <ele>128.255966</ele>
        <time>2012-01-15T10:01:44Z</time>
      </trkpt>
      <trkpt lat="46.54104" lon="0.384">
        <ele>130.413742</ele>
        <time>2012-01-15T10:02:00Z</time>
      </trkpt>
      <trkpt lat="46.54158" lon="0.38366">
        <ele>131</ele>
        <time>2012-01-15T10:02:15Z</time>
      </trkpt>
      <trkpt lat="46.54169" lon="0.3836">
        <ele>131.125</ele>
        <time>2012-01-15T10:02:18Z</time>
      </trkpt>
      <trkpt lat="46.54227" lon="0.38326">
        <ele>132.429993</ele>
        <time>2012-01-15T10:02:32Z</time>
      </trkpt>
      <trkpt lat="46.54232" lon="0.38323">
        <ele>132.529999</ele>
        <time>2012-01-15T10:02:33Z</time>
      </trkpt>
      <trkpt lat="46.54286" lon="0.38292">
        <ele>132.763596</ele>
        <time>2012-01-15T10:02:46Z</time>
      </trkpt>
      <trkpt lat="46.54295" lon="0.38287">
        <ele>132.643387</ele>
        <time>2012-01-15T10:02:48Z</time>
      </trkpt>
      <trkpt lat="46.54303" lon="0.38283">
        <ele>132.497208</ele>
        <time>2012-01-15T10:02:50Z</time>
      </trkpt>
      <trkpt lat="46.54366" lon="0.3825">
        <ele>132</ele>
        <time>2012-01-15T10:03:05Z</time>
      </trkpt>
      <trkpt lat="46.54382" lon="0.38239">
        <ele>131.938919</ele>
        <time>2012-01-15T10:03:09Z</time>
      </trkpt>
      <trkpt lat="46.54447" lon="0.38188">
        <ele>130.625</ele>
        <time>2012-01-15T10:03:25Z</time>
      </trkpt>
      <trkpt lat="46.54462" lon="0.38172">
        <ele>130.221558</ele>
        <time>2012-01-15T10:03:29Z</time>
      </trkpt>
      <trkpt lat="46.54469" lon="0.38165">
        <ele>129.948502</ele>
        <time>2012-01-15T10:03:31Z</time>
      </trkpt>
      <trkpt lat="46.54482" lon="0.38147">
        <ele>129.257507</ele>
        <time>2012-01-15T10:03:35Z</time>
      </trkpt>
      <trkpt lat="46.54533" lon="0.38088">
        <ele>125.53476</ele>
        <time>2012-01-15T10:03:49Z</time>
      </trkpt>
      <trkpt lat="46.54541" lon="0.38078">
        <ele>124.803841</ele>
        <time>2012-01-15T10:03:51Z</time>
      </trkpt>
      <trkpt lat="46.54569" lon="0.38039">
        <ele>122.514847</ele>
        <time>2012-01-15T10:03:59Z</time>
      </trkpt>
      <trkpt lat="46.54572" lon="0.38034">
        <ele>121.986</ele>
        <time>2012-01-15T10:04:00Z</time>
      </trkpt>
      <trkpt lat="46.54581" lon="0.38022">
        <ele>120.889999</ele>
        <time>2012-01-15T10:04:02Z</time>
      </trkpt>
      <trkpt lat="46.54616" lon="0.37968">
        <ele>117.429573</ele>
        <time>2012-01-15T10:04:11Z</time>
      </trkpt>
      <trkpt lat="46.5466" lon="0.37924">
        <ele>115.063751</ele>
        <time>2012-01-15T10:04:21Z</time>
      </trkpt>
      <trkpt lat="46.54691" lon="0.37876">
        <ele>113.579796</ele>
        <time>2012-01-15T10:04:33Z</time>
      </trkpt>
      <trkpt lat="46.54724" lon="0.3783">
        <ele>113.608574</ele>
        <time>2012-01-15T10:04:49Z</time>
      </trkpt>
      <trkpt lat="46.54739" lon="0.37792">
        <ele>114.019997</ele>
        <time>2012-01-15T10:05:02Z</time>
      </trkpt>
      <trkpt lat="46.54751" lon="0.3777">
        <ele>114.540001</ele>
        <time>2012-01-15T10:05:10Z</time>
      </trkpt>
      <trkpt lat="46.54758" lon="0.37748">
        <ele>114.889999</ele>
        <time>2012-01-15T10:05:17Z</time>
      </trkpt>
      <trkpt lat="46.54758" lon="0.37741">
        <ele>114.889999</ele>
        <time>2012-01-15T10:05:19Z</time>
      </trkpt>
      <trkpt lat="46.5475" lon="0.37718">
        <ele>114.550003</ele>
        <time>2012-01-15T10:05:25Z</time>
      </trkpt>
      <trkpt lat="46.54724" lon="0.37669">
        <ele>113.60688</ele>
        <time>2012-01-15T10:05:36Z</time>
      </trkpt>
      <trkpt lat="46.54689" lon="0.37607">
        <ele>114.131248</ele>
        <time>2012-01-15T10:05:51Z</time>
      </trkpt>
      <trkpt lat="46.5464" lon="0.37545">
        <ele>116.130852</ele>
        <time>2012-01-15T10:06:08Z</time>
      </trkpt>
      <trkpt lat="46.54608" lon="0.37504">
        <ele>117.058746</ele>
        <time>2012-01-15T10:06:20Z</time>
      </trkpt>
      <trkpt lat="46.54579" lon="0.37447">
        <ele>118.5075</ele>
        <time>2012-01-15T10:06:34Z</time>
      </trkpt>
      <trkpt lat="46.54532" lon="0.37393">
        <ele>119.437447</ele>
        <time>2012-01-15T10:06:50Z</time>
      </trkpt>
      <trkpt lat="46.5449" lon="0.37349">
        <ele>117.829903</ele>
        <time>2012-01-15T10:07:04Z</time>
      </trkpt>
      <trkpt lat="46.54471" lon="0.37344">
        <ele>116.493652</ele>
        <time>2012-01-15T10:07:08Z</time>
      </trkpt>
      <trkpt lat="46.54467" lon="0.37346">
        <ele>116.140961</ele>
        <time>2012-01-15T10:07:09Z</time>
      </trkpt>
      <trkpt lat="46.54448" lon="0.37352">
        <ele>114.772499</ele>
        <time>2012-01-15T10:07:14Z</time>
      </trkpt>
      <trkpt lat="46.5444" lon="0.37334">
        <ele>114.548126</ele>
        <time>2012-01-15T10:07:20Z</time>
      </trkpt>
      <trkpt lat="46.54419" lon="0.3728">
        <ele>114.794998</ele>
        <time>2012-01-15T10:07:33Z</time>
      </trkpt>
      <trkpt lat="46.54394" lon="0.37233">
        <ele>116.381119</ele>
        <time>2012-01-15T10:07:47Z</time>
      </trkpt>
      <trkpt lat="46.54376" lon="0.3719">
        <ele>117.950623</ele>
        <time>2012-01-15T10:07:59Z</time>
      </trkpt>
      <trkpt lat="46.54353" lon="0.37142">
        <ele>118.418747</ele>
        <time>2012-01-15T10:08:12Z</time>
      </trkpt>
      <trkpt lat="46.54325" lon="0.37092">
        <ele>117.651779</ele>
        <time>2012-01-15T10:08:25Z</time>
      </trkpt>
      <trkpt lat="46.54295" lon="0.37035">
        <ele>117.564751</ele>
        <time>2012-01-15T10:08:39Z</time>
      </trkpt>
      <trkpt lat="46.5429" lon="0.37015">
        <ele>118.273125</ele>
        <time>2012-01-15T10:08:44Z</time>
      </trkpt>
      <trkpt lat="46.54278" lon="0.37">
        <ele>118.252502</ele>
        <time>2012-01-15T10:08:49Z</time>
      </trkpt>
      <trkpt lat="46.54267" lon="0.36971">
        <ele>118.051003</ele>
        <time>2012-01-15T10:08:55Z</time>
      </trkpt>
      <trkpt lat="46.5425" lon="0.3693">
        <ele>118.142502</ele>
        <time>2012-01-15T10:09:03Z</time>
      </trkpt>
      <trkpt lat="46.54237" lon="0.36902">
        <ele>118.028122</ele>
        <time>2012-01-15T10:09:08Z</time>
      </trkpt>
      <trkpt lat="46.54246" lon="0.36879">
        <ele>118.797501</ele>
        <time>2012-01-15T10:09:14Z</time>
      </trkpt>
      <trkpt lat="46.5425" lon="0.36879">
        <ele>118.97847</ele>
        <time>2012-01-15T10:09:15Z</time>
      </trkpt>
      <trkpt lat="46.54313" lon="0.36885">
        <ele>120.863647</ele>
        <time>2012-01-15T10:09:32Z</time>
      </trkpt>
      <trkpt lat="46.5438" lon="0.36892">
        <ele>121.766403</ele>
        <time>2012-01-15T10:09:50Z</time>
      </trkpt>
      <trkpt lat="46.54434" lon="0.36879">
        <ele>122.78125</ele>
        <time>2012-01-15T10:10:05Z</time>
      </trkpt>
      <trkpt lat="46.54499" lon="0.36851">
        <ele>122.705025</ele>
        <time>2012-01-15T10:10:21Z</time>
      </trkpt>
      <trkpt lat="46.54554" lon="0.36828">
        <ele>121.397552</ele>
        <time>2012-01-15T10:10:36Z</time>
      </trkpt>
      <trkpt lat="46.54602" lon="0.36807">
        <ele>119.451485</ele>
        <time>2012-01-15T10:10:49Z</time>
      </trkpt>
      <trkpt lat="46.54639" lon="0.36792">
        <ele>117.94136</ele>
        <time>2012-01-15T10:11:00Z</time>
      </trkpt>
      <trkpt lat="46.5468" lon="0.36773">
        <ele>118.77961</ele>
        <time>2012-01-15T10:11:13Z</time>
      </trkpt>
      <trkpt lat="46.54697" lon="0.36728">
        <ele>119.440002</ele>
        <time>2012-01-15T10:11:24Z</time>
      </trkpt>
      <trkpt lat="46.54715" lon="0.3667">
        <ele>120.730003</ele>
        <time>2012-01-15T10:11:38Z</time>
      </trkpt>
      <trkpt lat="46.5474" lon="0.36609">
        <ele>121.114372</ele>
        <time>2012-01-15T10:11:53Z</time>
      </trkpt>
      <trkpt lat="46.5477" lon="0.36567">
        <ele>121.677498</ele>
        <time>2012-01-15T10:12:05Z</time>
      </trkpt>
      <trkpt lat="46.54781" lon="0.36561">
        <ele>121.841873</ele>
        <time>2012-01-15T10:12:09Z</time>
      </trkpt>
      <trkpt lat="46.54788" lon="0.3653">
        <ele>121.461197</ele>
        <time>2012-01-15T10:12:15Z</time>
      </trkpt>
      <trkpt lat="46.5479" lon="0.36512">
        <ele>120.892998</ele>
        <time>2012-01-15T10:12:18Z</time>
      </trkpt>
      <trkpt lat="46.54815" lon="0.36479">
        <ele>119.37812</ele>
        <time>2012-01-15T10:12:26Z</time>
      </trkpt>
      <trkpt lat="46.54819" lon="0.36478">
        <ele>119.233124</ele>
        <time>2012-01-15T10:12:27Z</time>
      </trkpt>
      <trkpt lat="46.54845" lon="0.36472">
        <ele>118.441872</ele>
        <time>2012-01-15T10:12:33Z</time>
      </trkpt>
      <trkpt lat="46.54887" lon="0.36477">
        <ele>116.944374</ele>
        <time>2012-01-15T10:12:42Z</time>
      </trkpt>
      <trkpt lat="46.54921" lon="0.36489">
        <ele>114.61367</ele>
        <time>2012-01-15T10:12:49Z</time>
      </trkpt>
      <trkpt lat="46.54932" lon="0.36493">
        <ele>113.817085</ele>
        <time>2012-01-15T10:12:51Z</time>
      </trkpt>
      <trkpt lat="46.54943" lon="0.36502">
        <ele>113.158836</ele>
        <time>2012-01-15T10:12:58Z</time>
      </trkpt>
      <trkpt lat="46.54944" lon="0.36502">
        <ele>112.967377</ele>
        <time>2012-01-15T10:12:59Z</time>
      </trkpt>
      <trkpt lat="46.5496" lon="0.3652">
        <ele>111.171722</ele>
        <time>2012-01-15T10:13:07Z</time>
      </trkpt>
      <trkpt lat="46.54967" lon="0.36531">
        <ele>110.722504</ele>
        <time>2012-01-15T10:13:09Z</time>
      </trkpt>
      <trkpt lat="46.54986" lon="0.36553">
        <ele>109.272598</ele>
        <time>2012-01-15T10:13:13Z</time>
      </trkpt>
      <trkpt lat="46.55012" lon="0.3657">
        <ele>105.675903</ele>
        <time>2012-01-15T10:13:18Z</time>
      </trkpt>
      <trkpt lat="46.55049" lon="0.3659">
        <ele>101.877975</ele>
        <time>2012-01-15T10:13:23Z</time>
      </trkpt>
      <trkpt lat="46.55065" lon="0.36598">
        <ele>99.723465</ele>
        <time>2012-01-15T10:13:25Z</time>
      </trkpt>
      <trkpt lat="46.55106" lon="0.3662">
        <ele>97.130249</ele>
        <time>2012-01-15T10:13:33Z</time>
      </trkpt>
      <trkpt lat="46.55118" lon="0.36621">
        <ele>96</ele>
        <time>2012-01-15T10:13:42Z</time>
      </trkpt>
      <trkpt lat="46.5512" lon="0.36608">
        <ele>95.853973</ele>
        <time>2012-01-15T10:13:46Z</time>
      </trkpt>
      <trkpt lat="46.55114" lon="0.36582">
        <ele>96.271515</ele>
        <time>2012-01-15T10:13:50Z</time>
      </trkpt>
      <trkpt lat="46.55091" lon="0.36547">
        <ele>94.954498</ele>
        <time>2012-01-15T10:13:56Z</time>
      </trkpt>
      <trkpt lat="46.5507" lon="0.36529">
        <ele>92.003128</ele>
        <time>2012-01-15T10:14:00Z</time>
      </trkpt>
      <trkpt lat="46.55064" lon="0.36523">
        <ele>91.81675</ele>
        <time>2012-01-15T10:14:01Z</time>
      </trkpt>
      <trkpt lat="46.55054" lon="0.36508">
        <ele>91.530403</ele>
        <time>2012-01-15T10:14:03Z</time>
      </trkpt>
      <trkpt lat="46.55045" lon="0.36491">
        <ele>90.287598</ele>
        <time>2012-01-15T10:14:05Z</time>
      </trkpt>
      <trkpt lat="46.55038" lon="0.36451">
        <ele>86.205498</ele>
        <time>2012-01-15T10:14:09Z</time>
      </trkpt>
      <trkpt lat="46.55037" lon="0.36392">
        <ele>82.101402</ele>
        <time>2012-01-15T10:14:15Z</time>
      </trkpt>
      <trkpt lat="46.55048" lon="0.36361">
        <ele>81.206436</ele>
        <time>2012-01-15T10:14:19Z</time>
      </trkpt>
      <trkpt lat="46.55052" lon="0.36351">
        <ele>80.883751</ele>
        <time>2012-01-15T10:14:21Z</time>
      </trkpt>
      <trkpt lat="46.55057" lon="0.36338">
        <ele>80.391365</ele>
        <time>2012-01-15T10:14:25Z</time>
      </trkpt>
      <trkpt lat="46.55056" lon="0.36324">
        <ele>80.230209</ele>
        <time>2012-01-15T10:14:28Z</time>
      </trkpt>
      <trkpt lat="46.55052" lon="0.36314">
        <ele>80.937653</ele>
        <time>2012-01-15T10:14:39Z</time>
      </trkpt>
      <trkpt lat="46.55047" lon="0.36311">
        <ele>81.173622</ele>
        <time>2012-01-15T10:14:54Z</time>
      </trkpt>
      <trkpt lat="46.55025" lon="0.36293">
        <ele>82.779251</ele>
        <time>2012-01-15T10:15:05Z</time>
      </trkpt>
      <trkpt lat="46.5501" lon="0.36277">
        <ele>84.119293</ele>
        <time>2012-01-15T10:15:13Z</time>
      </trkpt>
      <trkpt lat="46.54991" lon="0.36253">
        <ele>84.686798</ele>
        <time>2012-01-15T10:15:23Z</time>
      </trkpt>
      <trkpt lat="46.54964" lon="0.36232">
        <ele>85.313499</ele>
        <time>2012-01-15T10:15:33Z</time>
      </trkpt>
      <trkpt lat="46.5493" lon="0.36199">
        <ele>88.716301</ele>
        <time>2012-01-15T10:15:45Z</time>
      </trkpt>
      <trkpt lat="46.54903" lon="0.3617">
        <ele>89.9944</ele>
        <time>2012-01-15T10:15:58Z</time>
      </trkpt>
      <trkpt lat="46.54874" lon="0.36139">
        <ele>92.910622</ele>
        <time>2012-01-15T10:16:12Z</time>
      </trkpt>
      <trkpt lat="46.54847" lon="0.36107">
        <ele>93.459122</ele>
        <time>2012-01-15T10:16:25Z</time>
      </trkpt>
      <trkpt lat="46.54813" lon="0.36072">
        <ele>93.915749</ele>
        <time>2012-01-15T10:16:37Z</time>
      </trkpt>
      <trkpt lat="46.54801" lon="0.36055">
        <ele>93.990265</ele>
        <time>2012-01-15T10:16:41Z</time>
      </trkpt>
      <trkpt lat="46.54793" lon="0.36041">
        <ele>93.602852</ele>
        <time>2012-01-15T10:16:44Z</time>
      </trkpt>
      <trkpt lat="46.54771" lon="0.35988">
        <ele>91.580513</ele>
        <time>2012-01-15T10:16:53Z</time>
      </trkpt>
      <trkpt lat="46.54753" lon="0.35955">
        <ele>94.087967</ele>
        <time>2012-01-15T10:16:59Z</time>
      </trkpt>
      <trkpt lat="46.54734" lon="0.35913">
        <ele>93.933281</ele>
        <time>2012-01-15T10:17:09Z</time>
      </trkpt>
      <trkpt lat="46.54723" lon="0.35883">
        <ele>97.101074</ele>
        <time>2012-01-15T10:17:19Z</time>
      </trkpt>
      <trkpt lat="46.54713" lon="0.3585">
        <ele>99.640564</ele>
        <time>2012-01-15T10:17:31Z</time>
      </trkpt>
      <trkpt lat="46.54707" lon="0.35815">
        <ele>102.3284</ele>
        <time>2012-01-15T10:17:44Z</time>
      </trkpt>
      <trkpt lat="46.54691" lon="0.35771">
        <ele>101.95295</ele>
        <time>2012-01-15T10:17:55Z</time>
      </trkpt>
      <trkpt lat="46.54661" lon="0.3572">
        <ele>102.780548</ele>
        <time>2012-01-15T10:18:07Z</time>
      </trkpt>
      <trkpt lat="46.54628" lon="0.3568">
        <ele>102.810051</ele>
        <time>2012-01-15T10:18:19Z</time>
      </trkpt>
      <trkpt lat="46.54598" lon="0.3565">
        <ele>103.626312</ele>
        <time>2012-01-15T10:18:28Z</time>
      </trkpt>
      <trkpt lat="46.5458" lon="0.35629">
        <ele>105.903809</ele>
        <time>2012-01-15T10:18:38Z</time>
      </trkpt>
      <trkpt lat="46.5458" lon="0.35629">
        <ele>105.903809</ele>
        <time>2012-01-15T10:19:04Z</time>
      </trkpt>
      <trkpt lat="46.5458" lon="0.3563">
        <ele>105.880997</ele>
        <time>2012-01-15T10:19:06Z</time>
      </trkpt>
      <trkpt lat="46.54577" lon="0.3561">
        <ele>106.317657</ele>
        <time>2012-01-15T10:19:13Z</time>
      </trkpt>
      <trkpt lat="46.54553" lon="0.35542">
        <ele>109.603912</ele>
        <time>2012-01-15T10:19:28Z</time>
      </trkpt>
      <trkpt lat="46.54546" lon="0.35514">
        <ele>110.114632</ele>
        <time>2012-01-15T10:19:34Z</time>
      </trkpt>
      <trkpt lat="46.54529" lon="0.35464">
        <ele>111.184265</ele>
        <time>2012-01-15T10:19:45Z</time>
      </trkpt>
      <trkpt lat="46.54541" lon="0.35427">
        <ele>109.096748</ele>
        <time>2012-01-15T10:19:52Z</time>
      </trkpt>
      <trkpt lat="46.54553" lon="0.35391">
        <ele>108.853447</ele>
        <time>2012-01-15T10:20:00Z</time>
      </trkpt>
      <trkpt lat="46.5456" lon="0.35348">
        <ele>110.023941</ele>
        <time>2012-01-15T10:20:10Z</time>
      </trkpt>
      <trkpt lat="46.54569" lon="0.35346">
        <ele>108.684563</ele>
        <time>2012-01-15T10:20:19Z</time>
      </trkpt>
      <trkpt lat="46.54585" lon="0.35349">
        <ele>105.95047</ele>
        <time>2012-01-15T10:20:25Z</time>
      </trkpt>
      <trkpt lat="46.54591" lon="0.35353">
        <ele>104.616402</ele>
        <time>2012-01-15T10:20:28Z</time>
      </trkpt>
      <trkpt lat="46.54596" lon="0.35355">
        <ele>103.648689</ele>
        <time>2012-01-15T10:20:31Z</time>
      </trkpt>
      <trkpt lat="46.546" lon="0.3536">
        <ele>102.636887</ele>
        <time>2012-01-15T10:20:34Z</time>
      </trkpt>
      <trkpt lat="46.54614" lon="0.35365">
        <ele>100.375259</ele>
        <time>2012-01-15T10:20:39Z</time>
      </trkpt>
      <trkpt lat="46.54621" lon="0.35371">
        <ele>99.664322</ele>
        <time>2012-01-15T10:20:41Z</time>
      </trkpt>
      <trkpt lat="46.54634" lon="0.35382">
        <ele>98.533653</ele>
        <time>2012-01-15T10:20:44Z</time>
      </trkpt>
      <trkpt lat="46.54641" lon="0.35391">
        <ele>97.879089</ele>
        <time>2012-01-15T10:20:46Z</time>
      </trkpt>
      <trkpt lat="46.54653" lon="0.35406">
        <ele>96.940002</ele>
        <time>2012-01-15T10:20:49Z</time>
      </trkpt>
      <trkpt lat="46.5467" lon="0.35419">
        <ele>95.459999</ele>
        <time>2012-01-15T10:20:53Z</time>
      </trkpt>
      <trkpt lat="46.54686" lon="0.35437">
        <ele>93.47393</ele>
        <time>2012-01-15T10:20:57Z</time>
      </trkpt>
      <trkpt lat="46.54698" lon="0.35438">
        <ele>92.266022</ele>
        <time>2012-01-15T10:21:00Z</time>
      </trkpt>
      <trkpt lat="46.54701" lon="0.35435">
        <ele>91.634499</ele>
        <time>2012-01-15T10:21:01Z</time>
      </trkpt>
      <trkpt lat="46.54723" lon="0.35406">
        <ele>87.049469</ele>
        <time>2012-01-15T10:21:10Z</time>
      </trkpt>
      <trkpt lat="46.54728" lon="0.35395">
        <ele>86.030884</ele>
        <time>2012-01-15T10:21:24Z</time>
      </trkpt>
      <trkpt lat="46.54735" lon="0.3539">
        <ele>84.805824</ele>
        <time>2012-01-15T10:21:34Z</time>
      </trkpt>
      <trkpt lat="46.54736" lon="0.35388">
        <ele>84.493805</ele>
        <time>2012-01-15T10:21:39Z</time>
      </trkpt>
      <trkpt lat="46.54746" lon="0.35392">
        <ele>82.569122</ele>
        <time>2012-01-15T10:21:44Z</time>
      </trkpt>
      <trkpt lat="46.54748" lon="0.35393">
        <ele>82.417595</ele>
        <time>2012-01-15T10:21:45Z</time>
      </trkpt>
      <trkpt lat="46.54744" lon="0.35428">
        <ele>81.850296</ele>
        <time>2012-01-15T10:21:55Z</time>
      </trkpt>
      <trkpt lat="46.54738" lon="0.35471">
        <ele>82.308975</ele>
        <time>2012-01-15T10:22:03Z</time>
      </trkpt>
      <trkpt lat="46.54734" lon="0.35494">
        <ele>82.534218</ele>
        <time>2012-01-15T10:22:07Z</time>
      </trkpt>
      <trkpt lat="46.54732" lon="0.3553">
        <ele>82.069679</ele>
        <time>2012-01-15T10:22:14Z</time>
      </trkpt>
      <trkpt lat="46.54752" lon="0.35538">
        <ele>79.888252</ele>
        <time>2012-01-15T10:22:22Z</time>
      </trkpt>
      <trkpt lat="46.54774" lon="0.35541">
        <ele>78.801224</ele>
        <time>2012-01-15T10:22:32Z</time>
      </trkpt>
      <trkpt lat="46.54776" lon="0.35541">
        <ele>78.700089</ele>
        <time>2012-01-15T10:22:33Z</time>
      </trkpt>
      <trkpt lat="46.54798" lon="0.3558">
        <ele>79.122421</ele>
        <time>2012-01-15T10:22:44Z</time>
      </trkpt>
      <trkpt lat="46.54815" lon="0.35618">
        <ele>81.222038</ele>
        <time>2012-01-15T10:22:55Z</time>
      </trkpt>
      <trkpt lat="46.54837" lon="0.3565">
        <ele>83.062576</ele>
        <time>2012-01-15T10:23:07Z</time>
      </trkpt>
      <trkpt lat="46.54864" lon="0.35679">
        <ele>85.663025</ele>
        <time>2012-01-15T10:23:22Z</time>
      </trkpt>
      <trkpt lat="46.54865" lon="0.3568">
        <ele>85.832031</ele>
        <time>2012-01-15T10:23:23Z</time>
      </trkpt>
      <trkpt lat="46.54876" lon="0.3568">
        <ele>87.240631</ele>
        <time>2012-01-15T10:23:29Z</time>
      </trkpt>
      <trkpt lat="46.549" lon="0.3567">
        <ele>90.834015</ele>
        <time>2012-01-15T10:23:44Z</time>
      </trkpt>
      <trkpt lat="46.54917" lon="0.35661">
        <ele>93.393333</ele>
        <time>2012-01-15T10:23:56Z</time>
      </trkpt>
      <trkpt lat="46.54935" lon="0.35656">
        <ele>95.810829</ele>
        <time>2012-01-15T10:24:09Z</time>
      </trkpt>
      <trkpt lat="46.54963" lon="0.35647">
        <ele>99.47361</ele>
        <time>2012-01-15T10:24:24Z</time>
      </trkpt>
      <trkpt lat="46.54995" lon="0.35644">
        <ele>101.539001</ele>
        <time>2012-01-15T10:24:36Z</time>
      </trkpt>
      <trkpt lat="46.55053" lon="0.3564">
        <ele>103.545647</ele>
        <time>2012-01-15T10:24:53Z</time>
      </trkpt>
      <trkpt lat="46.55114" lon="0.35664">
        <ele>106.150703</ele>
        <time>2012-01-15T10:25:11Z</time>
      </trkpt>
      <trkpt lat="46.55164" lon="0.35685">
        <ele>107.140526</ele>
        <time>2012-01-15T10:25:26Z</time>
      </trkpt>
      <trkpt lat="46.55177" lon="0.3569">
        <ele>107.393211</ele>
        <time>2012-01-15T10:25:29Z</time>
      </trkpt>
      <trkpt lat="46.55204" lon="0.35681">
        <ele>107.401497</ele>
        <time>2012-01-15T10:25:36Z</time>
      </trkpt>
      <trkpt lat="46.55229" lon="0.3565">
        <ele>111.102249</ele>
        <time>2012-01-15T10:25:48Z</time>
      </trkpt>
      <trkpt lat="46.55266" lon="0.35638">
        <ele>114.60894</ele>
        <time>2012-01-15T10:26:03Z</time>
      </trkpt>
      <trkpt lat="46.55305" lon="0.35641">
        <ele>117.230003</ele>
        <time>2012-01-15T10:26:16Z</time>
      </trkpt>
      <trkpt lat="46.55355" lon="0.35648">
        <ele>120.426102</ele>
        <time>2012-01-15T10:26:31Z</time>
      </trkpt>
      <trkpt lat="46.55415" lon="0.35661">
        <ele>122.802597</ele>
        <time>2012-01-15T10:26:48Z</time>
      </trkpt>
      <trkpt lat="46.55464" lon="0.35671">
        <ele>123.143951</ele>
        <time>2012-01-15T10:27:00Z</time>
      </trkpt>
      <trkpt lat="46.55496" lon="0.35673">
        <ele>122.070282</ele>
        <time>2012-01-15T10:27:07Z</time>
      </trkpt>
      <trkpt lat="46.55528" lon="0.35673">
        <ele>120.663208</ele>
        <time>2012-01-15T10:27:14Z</time>
      </trkpt>
      <trkpt lat="46.55536" lon="0.35659">
        <ele>119.946465</ele>
        <time>2012-01-15T10:27:21Z</time>
      </trkpt>
      <trkpt lat="46.55534" lon="0.35593">
        <ele>117.477142</ele>
        <time>2012-01-15T10:27:35Z</time>
      </trkpt>
      <trkpt lat="46.55533" lon="0.35563">
        <ele>116.344269</ele>
        <time>2012-01-15T10:27:40Z</time>
      </trkpt>
      <trkpt lat="46.55532" lon="0.35523">
        <ele>114.730003</ele>
        <time>2012-01-15T10:27:46Z</time>
      </trkpt>
      <trkpt lat="46.55531" lon="0.35508">
        <ele>113.817024</ele>
        <time>2012-01-15T10:27:48Z</time>
      </trkpt>
      <trkpt lat="46.55531" lon="0.35501">
        <ele>113.350861</ele>
        <time>2012-01-15T10:27:49Z</time>
      </trkpt>
      <trkpt lat="46.55529" lon="0.35458">
        <ele>110.369499</ele>
        <time>2012-01-15T10:27:54Z</time>
      </trkpt>
      <trkpt lat="46.55527" lon="0.35435">
        <ele>106.747574</ele>
        <time>2012-01-15T10:27:58Z</time>
      </trkpt>
      <trkpt lat="46.55513" lon="0.35422">
        <ele>103.819534</ele>
        <time>2012-01-15T10:28:02Z</time>
      </trkpt>
      <trkpt lat="46.55508" lon="0.35419">
        <ele>102.782158</ele>
        <time>2012-01-15T10:28:03Z</time>
      </trkpt>
      <trkpt lat="46.55494" lon="0.35418">
        <ele>100.15522</ele>
        <time>2012-01-15T10:28:06Z</time>
      </trkpt>
      <trkpt lat="46.55485" lon="0.35421">
        <ele>99.231247</ele>
        <time>2012-01-15T10:28:08Z</time>
      </trkpt>
      <trkpt lat="46.55465" lon="0.35424">
        <ele>96.414284</ele>
        <time>2012-01-15T10:28:12Z</time>
      </trkpt>
      <trkpt lat="46.55439" lon="0.35425">
        <ele>92.630722</ele>
        <time>2012-01-15T10:28:16Z</time>
      </trkpt>
      <trkpt lat="46.55431" lon="0.35426">
        <ele>91.910095</ele>
        <time>2012-01-15T10:28:17Z</time>
      </trkpt>
      <trkpt lat="46.55405" lon="0.35427">
        <ele>89.32</ele>
        <time>2012-01-15T10:28:21Z</time>
      </trkpt>
      <trkpt lat="46.55395" lon="0.35425">
        <ele>87.981247</ele>
        <time>2012-01-15T10:28:23Z</time>
      </trkpt>
      <trkpt lat="46.55398" lon="0.35414">
        <ele>84.370003</ele>
        <time>2012-01-15T10:28:27Z</time>
      </trkpt>
      <trkpt lat="46.55402" lon="0.35413">
        <ele>84.401878</ele>
        <time>2012-01-15T10:28:28Z</time>
      </trkpt>
      <trkpt lat="46.55424" lon="0.35405">
        <ele>84.166992</ele>
        <time>2012-01-15T10:28:33Z</time>
      </trkpt>
      <trkpt lat="46.5545" lon="0.35384">
        <ele>84.794907</ele>
        <time>2012-01-15T10:28:39Z</time>
      </trkpt>
      <trkpt lat="46.55494" lon="0.35299">
        <ele>80.144997</ele>
        <time>2012-01-15T10:28:54Z</time>
      </trkpt>
      <trkpt lat="46.55502" lon="0.35281">
        <ele>79.649101</ele>
        <time>2012-01-15T10:28:57Z</time>
      </trkpt>
      <trkpt lat="46.55503" lon="0.35255">
        <ele>79.141823</ele>
        <time>2012-01-15T10:29:01Z</time>
      </trkpt>
      <trkpt lat="46.55474" lon="0.35155">
        <ele>80.318398</ele>
        <time>2012-01-15T10:29:15Z</time>
      </trkpt>
      <trkpt lat="46.55439" lon="0.35053">
        <ele>80.285156</ele>
        <time>2012-01-15T10:29:30Z</time>
      </trkpt>
      <trkpt lat="46.5542" lon="0.35008">
        <ele>79.474365</ele>
        <time>2012-01-15T10:29:41Z</time>
      </trkpt>
      <trkpt lat="46.55392" lon="0.3498">
        <ele>78</ele>
        <time>2012-01-15T10:29:48Z</time>
      </trkpt>
      <trkpt lat="46.55365" lon="0.34924">
        <ele>78.010422</ele>
        <time>2012-01-15T10:29:57Z</time>
      </trkpt>
      <trkpt lat="46.55358" lon="0.34848">
        <ele>78</ele>
        <time>2012-01-15T10:30:09Z</time>
      </trkpt>
      <trkpt lat="46.5536" lon="0.34828">
        <ele>78</ele>
        <time>2012-01-15T10:30:12Z</time>
      </trkpt>
      <trkpt lat="46.55387" lon="0.34728">
        <ele>78.772293</ele>
        <time>2012-01-15T10:30:28Z</time>
      </trkpt>
      <trkpt lat="46.55393" lon="0.34706">
        <ele>79.22699</ele>
        <time>2012-01-15T10:30:32Z</time>
      </trkpt>
      <trkpt lat="46.55406" lon="0.34704">
        <ele>79.963814</ele>
        <time>2012-01-15T10:30:38Z</time>
      </trkpt>
      <trkpt lat="46.55409" lon="0.34706">
        <ele>80.631203</ele>
        <time>2012-01-15T10:30:40Z</time>
      </trkpt>
      <trkpt lat="46.55411" lon="0.34709">
        <ele>81.039612</ele>
        <time>2012-01-15T10:30:42Z</time>
      </trkpt>
      <trkpt lat="46.55418" lon="0.34714">
        <ele>82.384804</ele>
        <time>2012-01-15T10:30:47Z</time>
      </trkpt>
      <trkpt lat="46.55428" lon="0.3472">
        <ele>84.305</ele>
        <time>2012-01-15T10:30:55Z</time>
      </trkpt>
      <trkpt lat="46.55446" lon="0.3475">
        <ele>85.997101</ele>
        <time>2012-01-15T10:31:12Z</time>
      </trkpt>
      <trkpt lat="46.55455" lon="0.34763">
        <ele>87.375732</ele>
        <time>2012-01-15T10:31:20Z</time>
      </trkpt>
      <trkpt lat="46.55463" lon="0.34777">
        <ele>88.35231</ele>
        <time>2012-01-15T10:31:28Z</time>
      </trkpt>
      <trkpt lat="46.55481" lon="0.34801">
        <ele>89.797081</ele>
        <time>2012-01-15T10:31:41Z</time>
      </trkpt>
      <trkpt lat="46.55499" lon="0.3481">
        <ele>91.561249</ele>
        <time>2012-01-15T10:31:53Z</time>
      </trkpt>
      <trkpt lat="46.55511" lon="0.34809">
        <ele>93.677498</ele>
        <time>2012-01-15T10:32:02Z</time>
      </trkpt>
      <trkpt lat="46.55518" lon="0.34813">
        <ele>94.352448</ele>
        <time>2012-01-15T10:32:07Z</time>
      </trkpt>
      <trkpt lat="46.5554" lon="0.34827">
        <ele>95.440353</ele>
        <time>2012-01-15T10:32:20Z</time>
      </trkpt>
      <trkpt lat="46.55547" lon="0.34833">
        <ele>95.661125</ele>
        <time>2012-01-15T10:32:24Z</time>
      </trkpt>
      <trkpt lat="46.55568" lon="0.3485">
        <ele>97.03228</ele>
        <time>2012-01-15T10:32:37Z</time>
      </trkpt>
      <trkpt lat="46.55584" lon="0.34857">
        <ele>99.299461</ele>
        <time>2012-01-15T10:32:46Z</time>
      </trkpt>
      <trkpt lat="46.55587" lon="0.34859">
        <ele>99.881432</ele>
        <time>2012-01-15T10:32:49Z</time>
      </trkpt>
      <trkpt lat="46.55603" lon="0.34874">
        <ele>101.653</ele>
        <time>2012-01-15T10:33:02Z</time>
      </trkpt>
      <trkpt lat="46.55613" lon="0.34879">
        <ele>103.662872</ele>
        <time>2012-01-15T10:33:09Z</time>
      </trkpt>
      <trkpt lat="46.5562" lon="0.34879">
        <ele>105.363998</ele>
        <time>2012-01-15T10:33:14Z</time>
      </trkpt>
      <trkpt lat="46.55634" lon="0.34905">
        <ele>107.974998</ele>
        <time>2012-01-15T10:33:28Z</time>
      </trkpt>
      <trkpt lat="46.55639" lon="0.34905">
        <ele>108.544998</ele>
        <time>2012-01-15T10:33:32Z</time>
      </trkpt>
      <trkpt lat="46.55649" lon="0.349">
        <ele>109.828751</ele>
        <time>2012-01-15T10:33:39Z</time>
      </trkpt>
      <trkpt lat="46.55664" lon="0.34891">
        <ele>111.772499</ele>
        <time>2012-01-15T10:33:53Z</time>
      </trkpt>
      <trkpt lat="46.55672" lon="0.34888">
        <ele>112.707497</ele>
        <time>2012-01-15T10:34:04Z</time>
      </trkpt>
      <trkpt lat="46.55674" lon="0.34891">
        <ele>112.887497</ele>
        <time>2012-01-15T10:34:14Z</time>
      </trkpt>
      <trkpt lat="46.55674" lon="0.34891">
        <ele>112.887497</ele>
        <time>2012-01-15T10:34:34Z</time>
      </trkpt>
      <trkpt lat="46.55675" lon="0.34894">
        <ele>112.838753</ele>
        <time>2012-01-15T10:34:55Z</time>
      </trkpt>
      <trkpt lat="46.55675" lon="0.34896">
        <ele>112.816254</ele>
        <time>2012-01-15T10:34:56Z</time>
      </trkpt>
      <trkpt lat="46.55677" lon="0.34905">
        <ele>112.758751</ele>
        <time>2012-01-15T10:35:01Z</time>
      </trkpt>
      <trkpt lat="46.55689" lon="0.3494">
        <ele>112.210419</ele>
        <time>2012-01-15T10:35:16Z</time>
      </trkpt>
      <trkpt lat="46.55714" lon="0.34977">
        <ele>111.434372</ele>
        <time>2012-01-15T10:35:31Z</time>
      </trkpt>
      <trkpt lat="46.55758" lon="0.34983">
        <ele>113.195061</ele>
        <time>2012-01-15T10:35:44Z</time>
      </trkpt>
      <trkpt lat="46.55775" lon="0.34984">
        <ele>113.658249</ele>
        <time>2012-01-15T10:35:55Z</time>
      </trkpt>
      <trkpt lat="46.55777" lon="0.34985">
        <ele>113.667824</ele>
        <time>2012-01-15T10:35:57Z</time>
      </trkpt>
      <trkpt lat="46.55815" lon="0.34986">
        <ele>114.275703</ele>
        <time>2012-01-15T10:36:09Z</time>
      </trkpt>
      <trkpt lat="46.55862" lon="0.34993">
        <ele>115.066933</ele>
        <time>2012-01-15T10:36:22Z</time>
      </trkpt>
      <trkpt lat="46.55922" lon="0.35017">
        <ele>115.820618</ele>
        <time>2012-01-15T10:36:39Z</time>
      </trkpt>
      <trkpt lat="46.5599" lon="0.3505">
        <ele>116.736626</ele>
        <time>2012-01-15T10:36:59Z</time>
      </trkpt>
      <trkpt lat="46.56065" lon="0.35078">
        <ele>117.595627</ele>
        <time>2012-01-15T10:37:20Z</time>
      </trkpt>
      <trkpt lat="46.56128" lon="0.35098">
        <ele>117.259377</ele>
        <time>2012-01-15T10:37:37Z</time>
      </trkpt>
      <trkpt lat="46.56179" lon="0.35093">
        <ele>118.354233</ele>
        <time>2012-01-15T10:37:52Z</time>
      </trkpt>
      <trkpt lat="46.56222" lon="0.35104">
        <ele>119.867302</ele>
        <time>2012-01-15T10:38:06Z</time>
      </trkpt>
      <trkpt lat="46.56279" lon="0.35125">
        <ele>121.264999</ele>
        <time>2012-01-15T10:38:21Z</time>
      </trkpt>
      <trkpt lat="46.5634" lon="0.35139">
        <ele>122</ele>
        <time>2012-01-15T10:38:36Z</time>
      </trkpt>
      <trkpt lat="46.56346" lon="0.35127">
        <ele>122</ele>
        <time>2012-01-15T10:38:40Z</time>
      </trkpt>
      <trkpt lat="46.5633" lon="0.35031">
        <ele>121.836876</ele>
        <time>2012-01-15T10:38:55Z</time>
      </trkpt>
      <trkpt lat="46.56323" lon="0.34996">
        <ele>121.296249</ele>
        <time>2012-01-15T10:39:00Z</time>
      </trkpt>
      <trkpt lat="46.5628" lon="0.34876">
        <ele>121.635002</ele>
        <time>2012-01-15T10:39:18Z</time>
      </trkpt>
      <trkpt lat="46.5625" lon="0.34793">
        <ele>121.355576</ele>
        <time>2012-01-15T10:39:32Z</time>
      </trkpt>
      <trkpt lat="46.56224" lon="0.34758">
        <ele>121.834999</ele>
        <time>2012-01-15T10:39:40Z</time>
      </trkpt>
      <trkpt lat="46.56218" lon="0.34702">
        <ele>121.683853</ele>
        <time>2012-01-15T10:39:49Z</time>
      </trkpt>
      <trkpt lat="46.56216" lon="0.34688">
        <ele>121.492882</ele>
        <time>2012-01-15T10:39:51Z</time>
      </trkpt>
      <trkpt lat="46.56217" lon="0.34667">
        <ele>121.177528</ele>
        <time>2012-01-15T10:39:54Z</time>
      </trkpt>
      <trkpt lat="46.56215" lon="0.34623">
        <ele>120.980698</ele>
        <time>2012-01-15T10:40:00Z</time>
      </trkpt>
      <trkpt lat="46.56211" lon="0.34572">
        <ele>120.775627</ele>
        <time>2012-01-15T10:40:07Z</time>
      </trkpt>
      <trkpt lat="46.56197" lon="0.34536">
        <ele>120.516251</ele>
        <time>2012-01-15T10:40:13Z</time>
      </trkpt>
      <trkpt lat="46.56189" lon="0.34528">
        <ele>120.553749</ele>
        <time>2012-01-15T10:40:15Z</time>
      </trkpt>
      <trkpt lat="46.56119" lon="0.34496">
        <ele>121.568748</ele>
        <time>2012-01-15T10:40:32Z</time>
      </trkpt>
      <trkpt lat="46.56072" lon="0.34483">
        <ele>122.312759</ele>
        <time>2012-01-15T10:40:45Z</time>
      </trkpt>
      <trkpt lat="46.56002" lon="0.3447">
        <ele>122.709366</ele>
        <time>2012-01-15T10:41:02Z</time>
      </trkpt>
      <trkpt lat="46.55994" lon="0.34468">
        <ele>122.845352</ele>
        <time>2012-01-15T10:41:04Z</time>
      </trkpt>
      <trkpt lat="46.55925" lon="0.34451">
        <ele>123.251122</ele>
        <time>2012-01-15T10:41:20Z</time>
      </trkpt>
      <trkpt lat="46.55913" lon="0.34445">
        <ele>123.38015</ele>
        <time>2012-01-15T10:41:24Z</time>
      </trkpt>
      <trkpt lat="46.55912" lon="0.34441">
        <ele>123.361198</ele>
        <time>2012-01-15T10:41:25Z</time>
      </trkpt>
      <trkpt lat="46.5591" lon="0.34438">
        <ele>123.335419</ele>
        <time>2012-01-15T10:41:26Z</time>
      </trkpt>
      <trkpt lat="46.5591" lon="0.34434">
        <ele>123.306541</ele>
        <time>2012-01-15T10:41:27Z</time>
      </trkpt>
      <trkpt lat="46.5591" lon="0.34431">
        <ele>123.271004</ele>
        <time>2012-01-15T10:41:28Z</time>
      </trkpt>
      <trkpt lat="46.5591" lon="0.34427">
        <ele>123.231621</ele>
        <time>2012-01-15T10:41:29Z</time>
      </trkpt>
      <trkpt lat="46.55911" lon="0.34416">
        <ele>123.11544</ele>
        <time>2012-01-15T10:41:32Z</time>
      </trkpt>
      <trkpt lat="46.55915" lon="0.34379">
        <ele>122.82312</ele>
        <time>2012-01-15T10:41:41Z</time>
      </trkpt>
      <trkpt lat="46.55939" lon="0.34361">
        <ele>122.348122</ele>
        <time>2012-01-15T10:41:51Z</time>
      </trkpt>
    </trkseg>
  </trk>
</gpx>